PORTS® Data Listing: 9415144 Port Chicago, CA

CO-OPS RAW PORTS DATA

************************      PRELIMINARY DATA      ************************** 

     THIS RAW DATA HAS NOT BEEN SUBJECT TO THE NATIONAL OCEAN SERVICE'S        
     QUALITY CONTROL OR QUALITY ASSURANCE PROCEDURES AND DOES NOT MEET         
     THE CRITERIA AND STANDARDS OF OFFICIAL NATIONAL OCEAN SERVICE             
     DATA.  IT IS RELEASED FOR LIMITED PUBLIC USE AS PRELIMINARY DATA TO       
     BE USED ONLY WITH APPROPRIATE CAUTION.                                    

************************      PRELIMINARY DATA      ************************** 


       CD   -   Calendar date
       T    -   Time
       TZ   -   Timezone
       PW   -   Predicted water level (feet above MLLW)
       OW   -   Observed water level (feet above MLLW)
       WS   -   Wind speed (knots)
       WD   -   Wind direction (degrees true)
       WG   -   Wind gust (knots)
       AT   -   Air temperature (degrees farenheit)
       WT   -   Water temperature (degrees farenheit)
       AP   -   Air pressure (millibars)
       SA   -   Salinty (PSU - Practical Salinity Units)
       SG   -   Specific gravity
       RH   -   Relative humidity
       AG   -   Air gap (feet)
       VI   -   Visibility (nautical miles)

       ** NOTE **
       A variable that has its data fields filled with "9"s, indicates that
       data was not collected for that sample period.
       **********


STATION NAME: Port Chicago (9415144)
****************************************************************************************************
    CD       T    TZ    PW     OW    WS   WD   WG    AT    WT    AP    SA    SG     RH    AG   VI
****************************************************************************************************
2019/11/14 23:24 PST    0.47   0.68    6  234    8  55.0  58.5 1021.1 -9.9 -9.999 -99.9 -99.99 -9.99
2019/11/14 23:30 PST    0.54   0.77    7  224    8  55.0  58.5 1021.1 -9.9 -9.999 -99.9 -99.99 -9.99
2019/11/14 23:36 PST    0.61   0.86    7  226    8  55.0  58.5 1021.1 -9.9 -9.999 -99.9 -99.99 -9.99
2019/11/14 23:42 PST    0.69   0.96    7  230    8  55.0  58.5 1021.1 -9.9 -9.999 -99.9 -99.99 -9.99
2019/11/14 23:48 PST    0.77   1.06    7  229    8  55.0  58.5 1021.1 -9.9 -9.999 -99.9 -99.99 -9.99
2019/11/14 23:54 PST    0.85   1.17    7  233    8  55.0  58.5 1021.1 -9.9 -9.999 -99.9 -99.99 -9.99
2019/11/15 00:00 PST    0.93   1.28    6  230    8  55.0  58.5 1021.2 -9.9 -9.999 -99.9 -99.99 -9.99
2019/11/15 00:06 PST    1.02   1.38    6  227    7  55.0  58.5 1021.3 -9.9 -9.999 -99.9 -99.99 -9.99
2019/11/15 00:12 PST    1.11   1.51    4  212    7  55.4  58.5 1021.3 -9.9 -9.999 -99.9 -99.99 -9.99
2019/11/15 00:18 PST    1.20   1.62    8  256   10  55.9  58.5 1021.4 -9.9 -9.999 -99.9 -99.99 -9.99
2019/11/15 00:24 PST    1.29   1.73   12  260   13  56.5  58.5 1021.4 -9.9 -9.999 -99.9 -99.99 -9.99
2019/11/15 00:30 PST    1.39   1.85   14  268   16  56.5  58.5 1021.4 -9.9 -9.999 -99.9 -99.99 -9.99
2019/11/15 00:36 PST    1.48   1.96   13  267   15  56.5  58.5 1021.5 -9.9 -9.999 -99.9 -99.99 -9.99
2019/11/15 00:42 PST    1.58   2.07   13  267   15  56.5  58.5 1021.5 -9.9 -9.999 -99.9 -99.99 -9.99
2019/11/15 00:48 PST    1.67   2.18   11  264   14  56.5  58.5 1021.6 -9.9 -9.999 -99.9 -99.99 -9.99
2019/11/15 00:54 PST    1.77   2.29   11  265   13  56.5  58.5 1021.7 -9.9 -9.999 -99.9 -99.99 -9.99
2019/11/15 01:00 PST    1.86   2.40   10  270   12  56.5  58.5 1021.6 -9.9 -9.999 -99.9 -99.99 -9.99
2019/11/15 01:06 PST    1.95   2.51   11  266   13  56.5  58.5 1021.7 -9.9 -9.999 -99.9 -99.99 -9.99
2019/11/15 01:12 PST    2.05   2.61   10  265   11  56.1  58.5 1021.7 -9.9 -9.999 -99.9 -99.99 -9.99
2019/11/15 01:18 PST    2.14   2.71   11  266   13  56.3  58.5 1021.7 -9.9 -9.999 -99.9 -99.99 -9.99
2019/11/15 01:24 PST    2.22   2.80   11  266   12  56.1  58.5 1021.7 -9.9 -9.999 -99.9 -99.99 -9.99
2019/11/15 01:30 PST    2.31   2.89   11  266   12  56.1  58.5 1021.7 -9.9 -9.999 -99.9 -99.99 -9.99
2019/11/15 01:36 PST    2.40   2.98   10  267   11  56.1  58.5 1021.8 -9.9 -9.999 -99.9 -99.99 -9.99
2019/11/15 01:42 PST    2.48   3.06   10  265   11  56.3  58.5 1021.9 -9.9 -9.999 -99.9 -99.99 -9.99
2019/11/15 01:48 PST    2.56   3.14    9  263   11  56.1  58.5 1022.0 -9.9 -9.999 -99.9 -99.99 -9.99
2019/11/15 01:54 PST    2.64   3.21    9  266   11  56.3  58.5 1021.9 -9.9 -9.999 -99.9 -99.99 -9.99
2019/11/15 02:00 PST    2.71   3.29    8  266   10  56.3  58.5 1021.9 -9.9 -9.999 -99.9 -99.99 -9.99
2019/11/15 02:06 PST    2.78   3.37    8  260    9  56.1  58.5 1021.9 -9.9 -9.999 -99.9 -99.99 -9.99
2019/11/15 02:12 PST    2.85   3.44    8  263    9  56.3  58.5 1021.9 -9.9 -9.999 -99.9 -99.99 -9.99
2019/11/15 02:18 PST    2.92   3.51    7  265    8  56.1  58.5 1021.7 -9.9 -9.999 -99.9 -99.99 -9.99
2019/11/15 02:24 PST    2.98   3.57    6  258    7  56.3  58.5 1021.6 -9.9 -9.999 -99.9 -99.99 -9.99
2019/11/15 02:30 PST    3.05   3.63    6  249    8  56.1  58.5 1021.6 -9.9 -9.999 -99.9 -99.99 -9.99
2019/11/15 02:36 PST    3.10   3.69    6  251    8  56.1  58.5 1021.7 -9.9 -9.999 -99.9 -99.99 -9.99
2019/11/15 02:42 PST    3.16   3.74    6  259    7  56.1  58.5 1021.8 -9.9 -9.999 -99.9 -99.99 -9.99
2019/11/15 02:48 PST    3.21   3.78    7  266    8  55.9  58.5 1021.8 -9.9 -9.999 -99.9 -99.99 -9.99
2019/11/15 02:54 PST    3.27   3.83    7  258    8  55.9  58.5 1021.8 -9.9 -9.999 -99.9 -99.99 -9.99
2019/11/15 03:00 PST    3.31   3.87    7  253    9  55.9  58.5 1021.9 -9.9 -9.999 -99.9 -99.99 -9.99
2019/11/15 03:06 PST    3.36   3.90    7  257    8  55.9  58.5 1021.8 -9.9 -9.999 -99.9 -99.99 -9.99
2019/11/15 03:12 PST    3.40   3.94    7  251   10  56.1  58.5 1021.8 -9.9 -9.999 -99.9 -99.99 -9.99
2019/11/15 03:18 PST    3.44   3.98    7  250    9  56.1  58.5 1021.8 -9.9 -9.999 -99.9 -99.99 -9.99
2019/11/15 03:24 PST    3.48   4.01    7  259    8  56.1  58.5 1021.8 -9.9 -9.999 -99.9 -99.99 -9.99
2019/11/15 03:30 PST    3.51   4.04    7  251    8  55.9  58.5 1021.8 -9.9 -9.999 -99.9 -99.99 -9.99
2019/11/15 03:36 PST    3.54   4.05    7  250    8  55.8  58.5 1021.8 -9.9 -9.999 -99.9 -99.99 -9.99
2019/11/15 03:42 PST    3.57   4.07    6  257    7  55.9  58.5 1021.8 -9.9 -9.999 -99.9 -99.99 -9.99
2019/11/15 03:48 PST    3.59   4.09    9  265    9  55.8  58.5 1021.7 -9.9 -9.999 -99.9 -99.99 -9.99
2019/11/15 03:54 PST    3.61   4.11    7  263   10  55.8  58.5 1021.8 -9.9 -9.999 -99.9 -99.99 -9.99
2019/11/15 04:00 PST    3.63   4.12    8  273    9  55.8  58.5 1021.8 -9.9 -9.999 -99.9 -99.99 -9.99
2019/11/15 04:06 PST    3.65   4.13    9  265   11  55.4  58.5 1021.9 -9.9 -9.999 -99.9 -99.99 -9.99
2019/11/15 04:12 PST    3.66   4.14    9  262   10  55.6  58.5 1022.0 -9.9 -9.999 -99.9 -99.99 -9.99
2019/11/15 04:18 PST    3.66   4.14   10  258   11  55.4  58.5 1022.1 -9.9 -9.999 -99.9 -99.99 -9.99
2019/11/15 04:24 PST    3.67   4.15    9  256   11  55.4  58.5 1022.2 -9.9 -9.999 -99.9 -99.99 -9.99
2019/11/15 04:30 PST    3.67   4.13    7  257   11  55.6  58.5 1022.3 -9.9 -9.999 -99.9 -99.99 -9.99
2019/11/15 04:36 PST    3.66   4.13    7  266    8  55.4  58.5 1022.2 -9.9 -9.999 -99.9 -99.99 -9.99
2019/11/15 04:42 PST    3.65   4.11    7  255   10  55.4  58.5 1022.2 -9.9 -9.999 -99.9 -99.99 -9.99
2019/11/15 04:48 PST    3.64   4.10    8  261   10  55.4  58.5 1022.2 -9.9 -9.999 -99.9 -99.99 -9.99
2019/11/15 04:54 PST    3.63   4.09    7  262    8  55.4  58.5 1022.2 -9.9 -9.999 -99.9 -99.99 -9.99
2019/11/15 05:00 PST    3.61   4.08    8  260    9  55.6  58.5 1022.3 -9.9 -9.999 -99.9 -99.99 -9.99
2019/11/15 05:06 PST    3.58   4.06    7  273    8  55.4  58.5 1022.2 -9.9 -9.999 -99.9 -99.99 -9.99
2019/11/15 05:12 PST    3.56   4.02    6  291    8  55.0  58.5 1022.2 -9.9 -9.999 -99.9 -99.99 -9.99
2019/11/15 05:18 PST    3.53   3.98    5  292    7  55.0  58.5 1022.2 -9.9 -9.999 -99.9 -99.99 -9.99
2019/11/15 05:24 PST    3.49   3.95    5  276    6  55.0  58.5 1022.2 -9.9 -9.999 -99.9 -99.99 -9.99
2019/11/15 05:30 PST    3.46   3.90    5  266    6  55.0  58.5 1022.1 -9.9 -9.999 -99.9 -99.99 -9.99
2019/11/15 05:36 PST    3.42   3.86    5  268    6  55.0  58.5 1022.2 -9.9 -9.999 -99.9 -99.99 -9.99
2019/11/15 05:42 PST    3.37   3.82    4  256    6  55.2  58.5 1022.2 -9.9 -9.999 -99.9 -99.99 -9.99
2019/11/15 05:48 PST    3.33   3.78    1  228    4  54.5  58.5 1022.1 -9.9 -9.999 -99.9 -99.99 -9.99
2019/11/15 05:54 PST    3.28   3.72    3  265    4  54.9  58.5 1022.2 -9.9 -9.999 -99.9 -99.99 -9.99
2019/11/15 06:00 PST    3.23   3.66    4  228    5  54.1  58.5 1022.2 -9.9 -9.999 -99.9 -99.99 -9.99
2019/11/15 06:06 PST    3.18   3.60    3  219    4  53.8  58.5 1022.2 -9.9 -9.999 -99.9 -99.99 -9.99
2019/11/15 06:12 PST    3.12   3.50    3  224    4  54.0  58.5 1022.2 -9.9 -9.999 -99.9 -99.99 -9.99
2019/11/15 06:18 PST    3.07   3.47    4  220    5  54.3  58.5 1022.3 -9.9 -9.999 -99.9 -99.99 -9.99
2019/11/15 06:24 PST    3.01   3.40    5  224    5  54.3  58.5 1022.3 -9.9 -9.999 -99.9 -99.99 -9.99
2019/11/15 06:30 PST    2.95   3.32    4  229    5  54.5  58.5 1022.4 -9.9 -9.999 -99.9 -99.99 -9.99
2019/11/15 06:36 PST    2.89   3.25    4  188    4  53.6  58.5 1022.4 -9.9 -9.999 -99.9 -99.99 -9.99
2019/11/15 06:42 PST    2.83   3.17    3  194    4  53.4  58.5 1022.5 -9.9 -9.999 -99.9 -99.99 -9.99
2019/11/15 06:48 PST    2.77   3.11    2  216    3  53.6  58.5 1022.5 -9.9 -9.999 -99.9 -99.99 -9.99
2019/11/15 06:54 PST    2.71   3.04    4  226    5  53.8  58.5 1022.7 -9.9 -9.999 -99.9 -99.99 -9.99
2019/11/15 07:00 PST    2.65   2.97    5  228    5  53.8  58.5 1022.7 -9.9 -9.999 -99.9 -99.99 -9.99
2019/11/15 07:06 PST    2.60   2.91    3  238    5  53.4  58.5 1022.7 -9.9 -9.999 -99.9 -99.99 -9.99
2019/11/15 07:12 PST    2.54   2.84    4  236    4  53.6  58.5 1022.7 -9.9 -9.999 -99.9 -99.99 -9.99
2019/11/15 07:18 PST    2.48   2.77    5  229    5  53.8  58.5 1022.9 -9.9 -9.999 -99.9 -99.99 -9.99
2019/11/15 07:24 PST    2.43   2.72    3  221    5  53.8  58.5 1022.8 -9.9 -9.999 -99.9 -99.99 -9.99
2019/11/15 07:30 PST    2.38   2.66    3  219    4  54.0  58.5 1022.8 -9.9 -9.999 -99.9 -99.99 -9.99
2019/11/15 07:36 PST    2.33   2.60    4  228    5  54.1  58.5 1022.8 -9.9 -9.999 -99.9 -99.99 -9.99
2019/11/15 07:42 PST    2.28   2.55    3  223    4  53.8  58.5 1022.8 -9.9 -9.999 -99.9 -99.99 -9.99
2019/11/15 07:48 PST    2.24   2.49    3  217    4  53.8  58.5 1022.9 -9.9 -9.999 -99.9 -99.99 -9.99
2019/11/15 07:54 PST    2.19   2.45    4  232    5  54.0  58.5 1023.0 -9.9 -9.999 -99.9 -99.99 -9.99
2019/11/15 08:00 PST    2.15   2.41    4  246    6  54.7  58.5 1023.2 -9.9 -9.999 -99.9 -99.99 -9.99
2019/11/15 08:06 PST    2.12   2.37    4  244    6  54.9  58.5 1023.2 -9.9 -9.999 -99.9 -99.99 -9.99
2019/11/15 08:12 PST    2.09   2.33    4  245    6  55.0  58.5 1023.3 -9.9 -9.999 -99.9 -99.99 -9.99
2019/11/15 08:18 PST    2.06   2.29    4  243    5  55.0  58.5 1023.3 -9.9 -9.999 -99.9 -99.99 -9.99
2019/11/15 08:24 PST    2.03   2.27    5  244    6  55.4  58.5 1023.5 -9.9 -9.999 -99.9 -99.99 -9.99
2019/11/15 08:30 PST    2.01   2.23    4  239    5  55.4  58.5 1023.4 -9.9 -9.999 -99.9 -99.99 -9.99
2019/11/15 08:36 PST    1.99   2.21    3  231    4  55.9  58.5 1023.4 -9.9 -9.999 -99.9 -99.99 -9.99
2019/11/15 08:42 PST    1.97   2.22    3  223    4  56.3  58.5 1023.5 -9.9 -9.999 -99.9 -99.99 -9.99
2019/11/15 08:48 PST    1.96   2.20    4  223    5  56.7  58.5 1023.6 -9.9 -9.999 -99.9 -99.99 -9.99
2019/11/15 08:54 PST    1.96   2.22    4  243    5  56.5  58.5 1023.6 -9.9 -9.999 -99.9 -99.99 -9.99
2019/11/15 09:00 PST    1.95   2.23    4  244    6  56.5  58.5 1023.7 -9.9 -9.999 -99.9 -99.99 -9.99
2019/11/15 09:06 PST    1.95   2.25    4  258    5  56.8  58.5 1023.8 -9.9 -9.999 -99.9 -99.99 -9.99
2019/11/15 09:12 PST    1.96   2.27    4  279    4  57.2  58.5 1023.8 -9.9 -9.999 -99.9 -99.99 -9.99
2019/11/15 09:18 PST    1.96   2.29    2  285    4  57.4  58.5 1023.7 -9.9 -9.999 -99.9 -99.99 -9.99
2019/11/15 09:24 PST    1.98   2.32    4  284    4  57.7  58.5 1023.7 -9.9 -9.999 -99.9 -99.99 -9.99
2019/11/15 09:30 PST    1.99   2.35    3  284    4  58.3  58.5 1023.8 -9.9 -9.999 -99.9 -99.99 -9.99
2019/11/15 09:36 PST    2.01   2.39    4  307    4  57.6  58.5 1023.8 -9.9 -9.999 -99.9 -99.99 -9.99
2019/11/15 09:42 PST    2.03   2.43    4  302    4  57.7  58.5 1023.8 -9.9 -9.999 -99.9 -99.99 -9.99
2019/11/15 09:48 PST    2.06   2.47    4  294    5  58.3  58.5 1023.7 -9.9 -9.999 -99.9 -99.99 -9.99
2019/11/15 09:54 PST    2.09   2.52    3  285    4  58.6  58.5 1023.7 -9.9 -9.999 -99.9 -99.99 -9.99
2019/11/15 10:00 PST    2.12   2.58    3  293    3  59.2  58.5 1023.8 -9.9 -9.999 -99.9 -99.99 -9.99
2019/11/15 10:06 PST    2.16   2.64    3  287    4  59.0  58.5 1023.8 -9.9 -9.999 -99.9 -99.99 -9.99
2019/11/15 10:12 PST    2.20   2.70    3  319    4  58.1  58.5 1023.8 -9.9 -9.999 -99.9 -99.99 -9.99
2019/11/15 10:18 PST    2.25   2.77    4  312    4  57.9  58.5 1023.7 -9.9 -9.999 -99.9 -99.99 -9.99
2019/11/15 10:24 PST    2.30   2.84    4  315    4  58.1  58.6 1023.8 -9.9 -9.999 -99.9 -99.99 -9.99
2019/11/15 10:30 PST    2.35   2.92    3  323    4  58.1  58.6 1023.8 -9.9 -9.999 -99.9 -99.99 -9.99
2019/11/15 10:36 PST    2.41   2.99    3  339    3  57.9  58.6 1023.8 -9.9 -9.999 -99.9 -99.99 -9.99
2019/11/15 10:42 PST    2.47   3.06    3  346    3  58.3  58.6 1023.8 -9.9 -9.999 -99.9 -99.99 -9.99
2019/11/15 10:48 PST    2.54   3.14    2  333    3  58.3  58.6 1023.6 -9.9 -9.999 -99.9 -99.99 -9.99
2019/11/15 10:54 PST    2.61   3.22    1  342    2  58.8  58.6 1023.5 -9.9 -9.999 -99.9 -99.99 -9.99
2019/11/15 11:00 PST    2.68   3.31    1   35    2  59.2  58.6 1023.3 -9.9 -9.999 -99.9 -99.99 -9.99
2019/11/15 11:06 PST    2.76   3.40    2   58    2  59.2  58.8 1023.1 -9.9 -9.999 -99.9 -99.99 -9.99
2019/11/15 11:12 PST    2.84   3.49    2   35    3  59.4  58.8 1023.1 -9.9 -9.999 -99.9 -99.99 -9.99
2019/11/15 11:18 PST    2.92   3.57    2    2    3  59.9  58.8 1023.1 -9.9 -9.999 -99.9 -99.99 -9.99
2019/11/15 11:24 PST    3.01   3.66    1   49    2  61.0  59.0 1023.0 -9.9 -9.999 -99.9 -99.99 -9.99
2019/11/15 11:30 PST    3.10   3.76    1   75    2  61.2  59.0 1023.0 -9.9 -9.999 -99.9 -99.99 -9.99
2019/11/15 11:36 PST    3.19   3.84    2  325    3  60.6  59.0 1023.1 -9.9 -9.999 -99.9 -99.99 -9.99
2019/11/15 11:42 PST    3.29   3.92    3  336    4  60.1  59.0 1022.8 -9.9 -9.999 -99.9 -99.99 -9.99
2019/11/15 11:48 PST    3.38   4.01    2  314    3  60.8  59.0 1022.9 -9.9 -9.999 -99.9 -99.99 -9.99
2019/11/15 11:54 PST    3.48   4.09    2  318    3  61.0  59.0 1022.8 -9.9 -9.999 -99.9 -99.99 -9.99
2019/11/15 12:00 PST    3.58   4.18    2  332    4  61.2  59.0 1022.7 -9.9 -9.999 -99.9 -99.99 -9.99
2019/11/15 12:06 PST    3.69   4.26    1    3    2  61.3  59.0 1022.5 -9.9 -9.999 -99.9 -99.99 -9.99
2019/11/15 12:12 PST    3.79   4.34    1   17    1  61.5  59.2 1022.5 -9.9 -9.999 -99.9 -99.99 -9.99
2019/11/15 12:18 PST    3.89   4.42    1    6    2  61.3  59.2 1022.5 -9.9 -9.999 -99.9 -99.99 -9.99
2019/11/15 12:24 PST    4.00   4.50    1    8    2  61.3  59.2 1022.4 -9.9 -9.999 -99.9 -99.99 -9.99
2019/11/15 12:30 PST    4.10   4.58    2    4    2  61.5  59.2 1022.2 -9.9 -9.999 -99.9 -99.99 -9.99
2019/11/15 12:36 PST    4.20   4.64    2  322    3  61.9  59.2 1022.0 -9.9 -9.999 -99.9 -99.99 -9.99
2019/11/15 12:42 PST    4.30   4.70    2  304    3  62.6  59.2 1021.9 -9.9 -9.999 -99.9 -99.99 -9.99
2019/11/15 12:48 PST    4.40   4.77    3  308    3  62.1  59.2 1021.7 -9.9 -9.999 -99.9 -99.99 -9.99
2019/11/15 12:54 PST    4.49   4.83    2  310    3  62.2  59.2 1021.7 -9.9 -9.999 -99.9 -99.99 -9.99
2019/11/15 13:00 PST    4.58   4.89    2  317    2  62.4  59.2 1021.5 -9.9 -9.999 -99.9 -99.99 -9.99
2019/11/15 13:06 PST    4.67   4.95    1  331    2  62.6  59.2 1021.4 -9.9 -9.999 -99.9 -99.99 -9.99
2019/11/15 13:12 PST    4.75   5.00    2  313    2  63.1  59.2 1021.4 -9.9 -9.999 -99.9 -99.99 -9.99
2019/11/15 13:18 PST    4.83   5.04    2  351    2  62.6  59.2 1021.2 -9.9 -9.999 -99.9 -99.99 -9.99
2019/11/15 13:24 PST    4.91   5.08    2  358    2  62.2  59.2 1021.2 -9.9 -9.999 -99.9 -99.99 -9.99
2019/11/15 13:30 PST    4.97   5.13    2  340    3  62.6  59.2 1021.1 -9.9 -9.999 -99.9 -99.99 -9.99
2019/11/15 13:36 PST    5.04   5.16    2  331    3  62.8  59.2 1021.1 -9.9 -9.999 -99.9 -99.99 -9.99
2019/11/15 13:42 PST    5.09   5.20    3  312    4  63.3  59.2 1021.1 -9.9 -9.999 -99.9 -99.99 -9.99
2019/11/15 13:48 PST    5.14   5.23    2  306    3  63.5  59.2 1021.0 -9.9 -9.999 -99.9 -99.99 -9.99
2019/11/15 13:54 PST    5.19   5.24    2  302    3  64.2  59.2 1021.0 -9.9 -9.999 -99.9 -99.99 -9.99
2019/11/15 14:00 PST    5.23   5.27    3  278    4  64.2  59.2 1021.1 -9.9 -9.999 -99.9 -99.99 -9.99
2019/11/15 14:06 PST    5.26   5.29    3  287    4  64.2  59.2 1021.0 -9.9 -9.999 -99.9 -99.99 -9.99
2019/11/15 14:12 PST    5.28   5.32    3  282    4  64.6  59.2 1021.0 -9.9 -9.999 -99.9 -99.99 -9.99
2019/11/15 14:18 PST    5.30   5.33    3  279    4  64.8  59.2 1021.0 -9.9 -9.999 -99.9 -99.99 -9.99
2019/11/15 14:24 PST    5.31   5.33    2  278    3  64.9  59.2 1020.9 -9.9 -9.999 -99.9 -99.99 -9.99
2019/11/15 14:30 PST    5.32   5.34    1  309    2  64.8  59.2 1020.9 -9.9 -9.999 -99.9 -99.99 -9.99
2019/11/15 14:36 PST    5.32   5.35    1  298    2  65.5  59.2 1020.9 -9.9 -9.999 -99.9 -99.99 -9.99
2019/11/15 14:42 PST    5.31   5.36    0  266    1  66.0  59.2 1020.9 -9.9 -9.999 -99.9 -99.99 -9.99
2019/11/15 14:48 PST    5.30   5.36    1  350    1  65.7  59.2 1020.9 -9.9 -9.999 -99.9 -99.99 -9.99
2019/11/15 14:54 PST    5.28   5.35    1  304    2  66.2  59.2 1020.9 -9.9 -9.999 -99.9 -99.99 -9.99
2019/11/15 15:00 PST    5.25   5.34    1   35    1  66.2  59.4 1020.9 -9.9 -9.999 -99.9 -99.99 -9.99
2019/11/15 15:06 PST    5.22   5.32    0   32    1  66.6  59.4 1020.8 -9.9 -9.999 -99.9 -99.99 -9.99
2019/11/15 15:12 PST    5.18   5.30    1  346    1  66.2  59.4 1020.7 -9.9 -9.999 -99.9 -99.99 -9.99
2019/11/15 15:18 PST    5.14   5.28    1  281    2  67.8  59.4 1020.8 -9.9 -9.999 -99.9 -99.99 -9.99
2019/11/15 15:24 PST    5.10   5.25    1  265    2  68.5  59.4 1020.8 -9.9 -9.999 -99.9 -99.99 -9.99
2019/11/15 15:30 PST    5.04   5.22    1  286    2  68.9  59.4 1020.8 -9.9 -9.999 -99.9 -99.99 -9.99
2019/11/15 15:36 PST    4.99   5.19    2  269    2  68.7  59.4 1020.8 -9.9 -9.999 -99.9 -99.99 -9.99
2019/11/15 15:42 PST    4.93   5.14    1  247    2  68.5  59.4 1020.7 -9.9 -9.999 -99.9 -99.99 -9.99
2019/11/15 15:48 PST    4.86   5.09    1  268    2  68.9  59.2 1020.6 -9.9 -9.999 -99.9 -99.99 -9.99
2019/11/15 15:54 PST    4.80   5.04    2  285    2  69.3  59.2 1020.5 -9.9 -9.999 -99.9 -99.99 -9.99
2019/11/15 16:00 PST    4.72   4.98    0  252    1  69.8  59.2 1020.6 -9.9 -9.999 -99.9 -99.99 -9.99
2019/11/15 16:06 PST    4.65   4.91    1  252    2  69.8  59.2 1020.5 -9.9 -9.999 -99.9 -99.99 -9.99
2019/11/15 16:12 PST    4.57   4.83    2  230    2  68.2  59.2 1020.4 -9.9 -9.999 -99.9 -99.99 -9.99
2019/11/15 16:18 PST    4.49   4.75    2  224    2  68.2  59.2 1020.4 -9.9 -9.999 -99.9 -99.99 -9.99
2019/11/15 16:24 PST    4.40   4.67    1  218    2  68.4  59.2 1020.4 -9.9 -9.999 -99.9 -99.99 -9.99
2019/11/15 16:30 PST    4.31   4.58    2  228    4  67.6  59.2 1020.5 -9.9 -9.999 -99.9 -99.99 -9.99
2019/11/15 16:36 PST    4.22   4.49    6  250    7  65.5  59.2 1020.5 -9.9 -9.999 -99.9 -99.99 -9.99
2019/11/15 16:42 PST    4.13   4.39    7  271    8  64.4  59.4 1020.6 -9.9 -9.999 -99.9 -99.99 -9.99
2019/11/15 16:48 PST    4.03   4.29    5  275    7  63.7  59.4 1020.6 -9.9 -9.999 -99.9 -99.99 -9.99
2019/11/15 16:54 PST    3.94   4.19    6  275    7  63.3  59.4 1020.7 -9.9 -9.999 -99.9 -99.99 -9.99
2019/11/15 17:00 PST    3.84   4.08    6  271    7  63.0  59.4 1020.6 -9.9 -9.999 -99.9 -99.99 -9.99
2019/11/15 17:06 PST    3.73   3.97    7  283    9  63.0  59.4 1020.7 -9.9 -9.999 -99.9 -99.99 -9.99
2019/11/15 17:12 PST    3.63   3.87    8  279    9  62.8  59.4 1020.8 -9.9 -9.999 -99.9 -99.99 -9.99
2019/11/15 17:18 PST    3.52   3.76    9  280   11  62.6  59.4 1020.8 -9.9 -9.999 -99.9 -99.99 -9.99
2019/11/15 17:24 PST    3.42   3.64   11  275   12  62.1  59.4 1020.7 -9.9 -9.999 -99.9 -99.99 -9.99
2019/11/15 17:30 PST    3.31   3.52   10  264   13  61.9  59.4 1020.7 -9.9 -9.999 -99.9 -99.99 -9.99
2019/11/15 17:36 PST    3.20   3.42    9  263   11  61.5  59.4 1020.6 -9.9 -9.999 -99.9 -99.99 -9.99
2019/11/15 17:42 PST    3.09   3.31   10  267   11  61.3  59.4 1020.7 -9.9 -9.999 -99.9 -99.99 -9.99
2019/11/15 17:48 PST    2.98   3.20   10  269   11  61.0  59.4 1020.7 -9.9 -9.999 -99.9 -99.99 -9.99
2019/11/15 17:54 PST    2.87   3.11   11  270   12  60.8  59.4 1020.8 -9.9 -9.999 -99.9 -99.99 -9.99
2019/11/15 18:00 PST    2.75   3.01   12  270   13  60.6  59.4 1020.8 -9.9 -9.999 -99.9 -99.99 -9.99
2019/11/15 18:06 PST    2.64   2.92   11  272   13  60.4  59.4 1020.8 -9.9 -9.999 -99.9 -99.99 -9.99
2019/11/15 18:12 PST    2.53   2.81   10  269   12  60.3  59.4 1020.8 -9.9 -9.999 -99.9 -99.99 -9.99
2019/11/15 18:18 PST    2.42   2.70   11  271   12  59.9  59.4 1020.8 -9.9 -9.999 -99.9 -99.99 -9.99
2019/11/15 18:24 PST    2.31   2.60   10  267   12  59.9  59.4 1020.8 -9.9 -9.999 -99.9 -99.99 -9.99
2019/11/15 18:30 PST    2.20   2.50    8  261   11  59.5  59.4 1020.8 -9.9 -9.999 -99.9 -99.99 -9.99
2019/11/15 18:36 PST    2.09   2.41    9  262   10  59.5  59.2 1020.8 -9.9 -9.999 -99.9 -99.99 -9.99
2019/11/15 18:42 PST    1.98   2.32    9  258   10  59.2  59.2 1020.8 -9.9 -9.999 -99.9 -99.99 -9.99
2019/11/15 18:48 PST    1.87   2.23    7  254   10  59.2  59.2 1020.8 -9.9 -9.999 -99.9 -99.99 -9.99
2019/11/15 18:54 PST    1.77   2.15    7  254    9  59.0  59.2 1020.8 -9.9 -9.999 -99.9 -99.99 -9.99
2019/11/15 19:00 PST    1.67   2.06    6  242    8  59.0  59.2 1020.9 -9.9 -9.999 -99.9 -99.99 -9.99
2019/11/15 19:06 PST    1.56   1.98    4  228    7  57.9  59.2 1020.9 -9.9 -9.999 -99.9 -99.99 -9.99
2019/11/15 19:12 PST    1.47   1.91    7  256    9  58.8  59.2 1020.9 -9.9 -9.999 -99.9 -99.99 -9.99
2019/11/15 19:18 PST    1.37   1.84    7  257    9  58.5  59.2 1021.0 -9.9 -9.999 -99.9 -99.99 -9.99
2019/11/15 19:24 PST    1.28   1.76    8  262   10  58.6  59.2 1021.1 -9.9 -9.999 -99.9 -99.99 -9.99
2019/11/15 19:30 PST    1.18   1.71   10  267   11  58.5  59.2 1021.1 -9.9 -9.999 -99.9 -99.99 -9.99
2019/11/15 19:36 PST    1.10   1.65   11  271   13  58.3  59.2 1021.2 -9.9 -9.999 -99.9 -99.99 -9.99
2019/11/15 19:42 PST    1.01   1.59   11  269   12  58.1  59.2 1021.1 -9.9 -9.999 -99.9 -99.99 -9.99
2019/11/15 19:48 PST    0.93   1.52    7  260   12  58.3  59.2 1021.1 -9.9 -9.999 -99.9 -99.99 -9.99
2019/11/15 19:54 PST    0.85   1.46    6  252    8  58.1  59.2 1021.0 -9.9 -9.999 -99.9 -99.99 -9.99
2019/11/15 20:00 PST    0.78   1.40    4  189    7  56.8  59.2 1020.8 -9.9 -9.999 -99.9 -99.99 -9.99
2019/11/15 20:06 PST    0.70   1.34    4  193    5  56.5  59.2 1020.7 -9.9 -9.999 -99.9 -99.99 -9.99
2019/11/15 20:12 PST    0.64   1.28    5  218    8  56.5  59.2 1020.6 -9.9 -9.999 -99.9 -99.99 -9.99
2019/11/15 20:18 PST    0.57   1.22    7  222    9  56.3  59.2 1020.6 -9.9 -9.999 -99.9 -99.99 -9.99
2019/11/15 20:24 PST    0.51   1.16    7  227    8  56.3  59.2 1020.7 -9.9 -9.999 -99.9 -99.99 -9.99
2019/11/15 20:30 PST    0.45   1.10    7  232    8  56.1  59.2 1020.7 -9.9 -9.999 -99.9 -99.99 -9.99
2019/11/15 20:36 PST    0.40   1.03    8  232    8  56.5  59.0 1020.7 -9.9 -9.999 -99.9 -99.99 -9.99
2019/11/15 20:42 PST    0.35   0.96    7  224    9  55.9  59.0 1020.7 -9.9 -9.999 -99.9 -99.99 -9.99
2019/11/15 20:48 PST    0.30   0.91    7  223    8  55.9  59.0 1020.9 -9.9 -9.999 -99.9 -99.99 -9.99
2019/11/15 20:54 PST    0.25   0.85    7  234    8  56.3  59.0 1021.0 -9.9 -9.999 -99.9 -99.99 -9.99
2019/11/15 21:00 PST    0.21   0.80    6  224    8  55.8  59.0 1021.0 -9.9 -9.999 -99.9 -99.99 -9.99
2019/11/15 21:06 PST    0.17   0.74    7  221    8  56.1  59.0 1021.0 -9.9 -9.999 -99.9 -99.99 -9.99
2019/11/15 21:12 PST    0.14   0.68    7  237    8  55.8  59.0 1021.2 -9.9 -9.999 -99.9 -99.99 -9.99
2019/11/15 21:18 PST    0.11   0.63    7  237    8  55.8  59.0 1021.4 -9.9 -9.999 -99.9 -99.99 -9.99
2019/11/15 21:24 PST    0.08   0.57    6  242    8  55.6  59.0 1021.4 -9.9 -9.999 -99.9 -99.99 -9.99
2019/11/15 21:30 PST    0.05   0.52    6  238    8  55.6  59.0 1021.4 -9.9 -9.999 -99.9 -99.99 -9.99
2019/11/15 21:36 PST    0.03   0.47    7  234    8  55.2  58.8 1021.5 -9.9 -9.999 -99.9 -99.99 -9.99
2019/11/15 21:42 PST    0.01   0.41    7  234    8  55.2  58.8 1021.5 -9.9 -9.999 -99.9 -99.99 -9.99
2019/11/15 21:48 PST   -0.01   0.36    7  228    8  55.2  58.8 1021.4 -9.9 -9.999 -99.9 -99.99 -9.99
2019/11/15 21:54 PST   -0.03   0.31    6  223    8  55.0  58.8 1021.3 -9.9 -9.999 -99.9 -99.99 -9.99
2019/11/15 22:00 PST   -0.04   0.26    7  222    8  55.0  58.8 1021.2 -9.9 -9.999 -99.9 -99.99 -9.99
2019/11/15 22:06 PST   -0.05   0.21    7  224    9  55.0  58.8 1021.2 -9.9 -9.999 -99.9 -99.99 -9.99
2019/11/15 22:12 PST   -0.06   0.17    5  215    8  55.0  58.8 1021.2 -9.9 -9.999 -99.9 -99.99 -9.99
2019/11/15 22:18 PST   -0.06   0.13    7  225    8  55.0  58.8 1021.2 -9.9 -9.999 -99.9 -99.99 -9.99
2019/11/15 22:24 PST   -0.07   0.10    6  221    8  54.5  58.8 1021.1 -9.9 -9.999 -99.9 -99.99 -9.99
2019/11/15 22:30 PST   -0.07   0.06    5  222    8  54.5  58.6 1021.0 -9.9 -9.999 -99.9 -99.99 -9.99
2019/11/15 22:36 PST   -0.06   0.02    5  220    8  54.3  58.6 1021.1 -9.9 -9.999 -99.9 -99.99 -9.99
2019/11/15 22:42 PST   -0.06   0.02    4  221    5  53.2  58.6 1021.1 -9.9 -9.999 -99.9 -99.99 -9.99
2019/11/15 22:48 PST   -0.05  -0.02    4  219    6  52.9  58.6 1021.1 -9.9 -9.999 -99.9 -99.99 -9.99
2019/11/15 22:54 PST   -0.03  -0.02    4  212    7  53.1  58.6 1021.0 -9.9 -9.999 -99.9 -99.99 -9.99
2019/11/15 23:00 PST   -0.02  -0.04    3  208    6  52.9  58.6 1021.0 -9.9 -9.999 -99.9 -99.99 -9.99
2019/11/15 23:06 PST    0.00  -0.05    3  210    5  52.5  58.6 1021.1 -9.9 -9.999 -99.9 -99.99 -9.99
2019/11/15 23:12 PST    0.03  -0.05    5  223    6  52.0  58.6 1021.0 -9.9 -9.999 -99.9 -99.99 -9.99
2019/11/15 23:18 PST    0.05  -0.03    4  216    7  51.8  58.6 1020.9 -9.9 -9.999 -99.9 -99.99 -9.99
2019/11/15 23:24 PST    0.08   0.01    6  224    7  51.4  58.6 1021.0 -9.9 -9.999 -99.9 -99.99 -9.99
2019/11/15 23:30 PST    0.12   0.03    6  226    7  51.6  58.6 1020.9 -9.9 -9.999 -99.9 -99.99 -9.99
2019/11/15 23:36 PST    0.16   0.08    6  222    7  52.0  58.6 1020.9 -9.9 -9.999 -99.9 -99.99 -9.99
2019/11/15 23:42 PST    0.20   0.12    6  225    7  51.4  58.6 1020.9 -9.9 -9.999 -99.9 -99.99 -9.99
2019/11/15 23:48 PST    0.25   0.16    6  231    7  51.4  58.5 1020.9 -9.9 -9.999 -99.9 -99.99 -9.99
2019/11/15 23:54 PST    0.30   0.23    7  225    8  52.2  58.5 1020.9 -9.9 -9.999 -99.9 -99.99 -9.99
2019/11/16 00:00 PST    0.36   0.30    7  222    8  52.7  58.5 1021.0 -9.9 -9.999 -99.9 -99.99 -9.99
2019/11/16 00:06 PST    0.41   0.38    8  222   10  53.2  58.5 1021.1 -9.9 -9.999 -99.9 -99.99 -9.99
2019/11/16 00:12 PST    0.48   0.47    7  219   10  53.6  58.5 1021.3 -9.9 -9.999 -99.9 -99.99 -9.99
2019/11/16 00:18 PST    0.55   0.56    6  217    9  54.0  58.5 1021.1 -9.9 -9.999 -99.9 -99.99 -9.99
2019/11/16 00:24 PST    0.62   0.65    6  221    8  53.4  58.5 1021.1 -9.9 -9.999 -99.9 -99.99 -9.99
2019/11/16 00:30 PST    0.69   0.75    6  218    8  54.0  58.6 1021.1 -9.9 -9.999 -99.9 -99.99 -9.99
2019/11/16 00:36 PST    0.77   0.85    5  222    8  53.4  58.6 1021.1 -9.9 -9.999 -99.9 -99.99 -9.99
2019/11/16 00:42 PST    0.85   0.95    4  209    8  53.6  58.6 1021.1 -9.9 -9.999 -99.9 -99.99 -9.99
2019/11/16 00:48 PST    0.93   1.06    4  212    6  53.2  58.6 1021.1 -9.9 -9.999 -99.9 -99.99 -9.99
2019/11/16 00:54 PST    1.02   1.17    4  209    6  53.1  58.6 1021.1 -9.9 -9.999 -99.9 -99.99 -9.99
2019/11/16 01:00 PST    1.10   1.29    6  219    7  53.6  58.6 1021.1 -9.9 -9.999 -99.9 -99.99 -9.99
2019/11/16 01:06 PST    1.19   1.40    5  218    8  53.2  58.5 1021.0 -9.9 -9.999 -99.9 -99.99 -9.99
2019/11/16 01:12 PST    1.29   1.52    3  211    6  52.9  58.5 1020.9 -9.9 -9.999 -99.9 -99.99 -9.99
2019/11/16 01:18 PST    1.38   1.63    5  199    7  52.0  58.5 1020.8 -9.9 -9.999 -99.9 -99.99 -9.99
2019/11/16 01:24 PST    1.47   1.74    4  207    8  51.8  58.5 1020.7 -9.9 -9.999 -99.9 -99.99 -9.99
2019/11/16 01:30 PST    1.56   1.85    6  226    7  50.9  58.5 1020.8 -9.9 -9.999 -99.9 -99.99 -9.99
2019/11/16 01:36 PST    1.65   1.97    7  230    9  50.9  58.5 1020.9 -9.9 -9.999 -99.9 -99.99 -9.99
2019/11/16 01:42 PST    1.75   2.08    8  233   10  51.4  58.5 1020.9 -9.9 -9.999 -99.9 -99.99 -9.99
2019/11/16 01:48 PST    1.84   2.18    9  235   10  51.8  58.5 1021.0 -9.9 -9.999 -99.9 -99.99 -9.99
2019/11/16 01:54 PST    1.93   2.28    7  233   10  51.4  58.5 1021.1 -9.9 -9.999 -99.9 -99.99 -9.99
2019/11/16 02:00 PST    2.02   2.38    6  218    9  52.2  58.5 1020.9 -9.9 -9.999 -99.9 -99.99 -9.99
2019/11/16 02:06 PST    2.11   2.48    6  218    7  52.3  58.6 1020.9 -9.9 -9.999 -99.9 -99.99 -9.99
2019/11/16 02:12 PST    2.19   2.58    5  217    8  52.7  58.6 1020.8 -9.9 -9.999 -99.9 -99.99 -9.99
2019/11/16 02:18 PST    2.28   2.67    4  216    7  52.5  58.5 1020.7 -9.9 -9.999 -99.9 -99.99 -9.99
2019/11/16 02:24 PST    2.36   2.76    5  220    7  51.8  58.5 1020.8 -9.9 -9.999 -99.9 -99.99 -9.99
2019/11/16 02:30 PST    2.44   2.85    4  211    7  51.8  58.5 1020.8 -9.9 -9.999 -99.9 -99.99 -9.99
2019/11/16 02:36 PST    2.52   2.93    3  210    5  51.6  58.5 1020.8 -9.9 -9.999 -99.9 -99.99 -9.99
2019/11/16 02:42 PST    2.59   3.01    4  212    6  51.4  58.5 1020.8 -9.9 -9.999 -99.9 -99.99 -9.99
2019/11/16 02:48 PST    2.67   3.09    4  209    6  51.4  58.5 1020.8 -9.9 -9.999 -99.9 -99.99 -9.99
2019/11/16 02:54 PST    2.74   3.16    4  206    6  51.4  58.5 1020.8 -9.9 -9.999 -99.9 -99.99 -9.99
2019/11/16 03:00 PST    2.81   3.22    4  215    7  51.6  58.5 1020.9 -9.9 -9.999 -99.9 -99.99 -9.99
2019/11/16 03:06 PST    2.87   3.30    4  211    6  51.6  58.5 1020.9 -9.9 -9.999 -99.9 -99.99 -9.99
2019/11/16 03:12 PST    2.94   3.36    5  214    7  51.6  58.5 1020.9 -9.9 -9.999 -99.9 -99.99 -9.99
2019/11/16 03:18 PST    3.00   3.42    4  211    7  51.4  58.5 1020.8 -9.9 -9.999 -99.9 -99.99 -9.99
2019/11/16 03:24 PST    3.05   3.47    6  216    8  52.5  58.5 1020.8 -9.9 -9.999 -99.9 -99.99 -9.99
2019/11/16 03:30 PST    3.11   3.53    4  212    8  52.5  58.5 1020.7 -9.9 -9.999 -99.9 -99.99 -9.99
2019/11/16 03:36 PST    3.16   3.57    4  216    6  52.0  58.5 1020.6 -9.9 -9.999 -99.9 -99.99 -9.99
2019/11/16 03:42 PST    3.21   3.62    5  221    8  52.7  58.5 1020.6 -9.9 -9.999 -99.9 -99.99 -9.99
2019/11/16 03:48 PST    3.26   3.67    4  214    9  51.6  58.5 1020.5 -9.9 -9.999 -99.9 -99.99 -9.99
2019/11/16 03:54 PST    3.31   3.72    6  199    8  51.1  58.5 1020.5 -9.9 -9.999 -99.9 -99.99 -9.99
2019/11/16 04:00 PST    3.35   3.76    9  191   10  50.5  58.5 1020.5 -9.9 -9.999 -99.9 -99.99 -9.99
2019/11/16 04:06 PST    3.39   3.79    3  208   10  50.5  58.5 1020.5 -9.9 -9.999 -99.9 -99.99 -9.99
2019/11/16 04:12 PST    3.43   3.82    5  202    8  50.4  58.5 1020.5 -9.9 -9.999 -99.9 -99.99 -9.99
2019/11/16 04:18 PST    3.47   3.85    4  205    6  50.2  58.6 1020.5 -9.9 -9.999 -99.9 -99.99 -9.99
2019/11/16 04:24 PST    3.50   3.88    4  214    7  50.2  58.6 1020.6 -9.9 -9.999 -99.9 -99.99 -9.99
2019/11/16 04:30 PST    3.53   3.91    3  207    7  50.5  58.6 1020.8 -9.9 -9.999 -99.9 -99.99 -9.99
2019/11/16 04:36 PST    3.55   3.93    4  208    6  50.7  58.6 1020.9 -9.9 -9.999 -99.9 -99.99 -9.99
2019/11/16 04:42 PST    3.58   3.94    4  212    8  51.1  58.6 1020.9 -9.9 -9.999 -99.9 -99.99 -9.99
2019/11/16 04:48 PST    3.60   3.96    5  219    7  51.8  58.6 1020.9 -9.9 -9.999 -99.9 -99.99 -9.99
2019/11/16 04:54 PST    3.62   3.97    4  217    7  52.2  58.6 1020.9 -9.9 -9.999 -99.9 -99.99 -9.99
2019/11/16 05:00 PST    3.63   3.98    4  216    7  52.2  58.6 1020.8 -9.9 -9.999 -99.9 -99.99 -9.99
2019/11/16 05:06 PST    3.64   4.00    5  215    6  52.3  58.6 1020.8 -9.9 -9.999 -99.9 -99.99 -9.99
2019/11/16 05:12 PST    3.65   4.01    3  208    6  52.2  58.6 1020.8 -9.9 -9.999 -99.9 -99.99 -9.99
2019/11/16 05:18 PST    3.65   4.02    6  222    8  52.7  58.6 1020.8 -9.9 -9.999 -99.9 -99.99 -9.99
2019/11/16 05:24 PST    3.65   4.03    7  227   10  52.9  58.6 1020.8 -9.9 -9.999 -99.9 -99.99 -9.99
2019/11/16 05:30 PST    3.65   4.02    5  216    9  52.9  58.6 1020.7 -9.9 -9.999 -99.9 -99.99 -9.99
2019/11/16 05:36 PST    3.64   4.02    4  201    7  51.1  58.6 1020.7 -9.9 -9.999 -99.9 -99.99 -9.99
2019/11/16 05:42 PST    3.63   4.01    4  205    9  51.1  58.6 1020.8 -9.9 -9.999 -99.9 -99.99 -9.99
2019/11/16 05:48 PST    3.62   4.00    5  213    8  51.4  58.6 1020.9 -9.9 -9.999 -99.9 -99.99 -9.99
2019/11/16 05:54 PST    3.60   3.99    5  223    6  51.4  58.6 1021.0 -9.9 -9.999 -99.9 -99.99 -9.99
2019/11/16 06:00 PST    3.58   3.97    3  206    7  51.3  58.6 1021.1 -9.9 -9.999 -99.9 -99.99 -9.99
2019/11/16 06:06 PST    3.55   3.95    4  211    6  51.1  58.6 1021.1 -9.9 -9.999 -99.9 -99.99 -9.99
2019/11/16 06:12 PST    3.52   3.93    5  198    8  50.7  58.6 1021.2 -9.9 -9.999 -99.9 -99.99 -9.99
2019/11/16 06:18 PST    3.49   3.90    4  201    7  50.5  58.6 1021.2 -9.9 -9.999 -99.9 -99.99 -9.99
2019/11/16 06:24 PST    3.46   3.87    4  201    9  50.5  58.6 1021.2 -9.9 -9.999 -99.9 -99.99 -9.99
2019/11/16 06:30 PST    3.42   3.84    7  194    9  50.5  58.6 1021.2 -9.9 -9.999 -99.9 -99.99 -9.99
2019/11/16 06:36 PST    3.38   3.80    7  194   10  50.5  58.6 1021.2 -9.9 -9.999 -99.9 -99.99 -9.99
2019/11/16 06:42 PST    3.33   3.76    6  195    9  50.5  58.6 1021.3 -9.9 -9.999 -99.9 -99.99 -9.99
2019/11/16 06:48 PST    3.29   3.71    6  198    9  50.4  58.6 1021.3 -9.9 -9.999 -99.9 -99.99 -9.99
2019/11/16 06:54 PST    3.24   3.66    6  198    9  50.0  58.6 1021.3 -9.9 -9.999 -99.9 -99.99 -9.99
2019/11/16 07:00 PST    3.19   3.61    8  195   11  49.8  58.6 1021.3 -9.9 -9.999 -99.9 -99.99 -9.99
2019/11/16 07:06 PST    3.13   3.54    6  199   11  49.6  58.6 1021.3 -9.9 -9.999 -99.9 -99.99 -9.99
2019/11/16 07:12 PST    3.08   3.49    9  190   11  49.6  58.6 1021.3 -9.9 -9.999 -99.9 -99.99 -9.99
2019/11/16 07:18 PST    3.02   3.43    8  193   10  49.8  58.6 1021.4 -9.9 -9.999 -99.9 -99.99 -9.99
2019/11/16 07:24 PST    2.97   3.38    8  191   10  50.0  58.6 1021.5 -9.9 -9.999 -99.9 -99.99 -9.99
2019/11/16 07:30 PST    2.91   3.32    8  192   10  49.6  58.6 1021.5 -9.9 -9.999 -99.9 -99.99 -9.99
2019/11/16 07:36 PST    2.85   3.26    7  193   10  49.8  58.6 1021.6 -9.9 -9.999 -99.9 -99.99 -9.99
2019/11/16 07:42 PST    2.80   3.20    7  191    9  49.6  58.6 1021.6 -9.9 -9.999 -99.9 -99.99 -9.99
2019/11/16 07:48 PST    2.74   3.13    7  189    9  48.9  58.6 1021.6 -9.9 -9.999 -99.9 -99.99 -9.99
2019/11/16 07:54 PST    2.68   3.08    5  194    9  49.1  58.6 1021.6 -9.9 -9.999 -99.9 -99.99 -9.99
2019/11/16 08:00 PST    2.63   3.02    5  195    8  49.3  58.6 1021.6 -9.9 -9.999 -99.9 -99.99 -9.99
2019/11/16 08:06 PST    2.57   2.97    4  198    8  49.6  58.6 1021.7 -9.9 -9.999 -99.9 -99.99 -9.99
2019/11/16 08:12 PST    2.52   2.91    5  195    8  50.4  58.6 1021.8 -9.9 -9.999 -99.9 -99.99 -9.99
2019/11/16 08:18 PST    2.47   2.86    5  193    8  50.5  58.6 1021.9 -9.9 -9.999 -99.9 -99.99 -9.99
2019/11/16 08:24 PST    2.42   2.80    4  199    7  51.1  58.6 1021.8 -9.9 -9.999 -99.9 -99.99 -9.99
2019/11/16 08:30 PST    2.37   2.75    4  210    5  52.2  58.6 1021.9 -9.9 -9.999 -99.9 -99.99 -9.99
2019/11/16 08:36 PST    2.33   2.71    5  219    6  52.7  58.6 1022.0 -9.9 -9.999 -99.9 -99.99 -9.99
2019/11/16 08:42 PST    2.29   2.66    4  222    7  52.9  58.6 1021.9 -9.9 -9.999 -99.9 -99.99 -9.99
2019/11/16 08:48 PST    2.25   2.61    5  235    7  53.1  58.6 1021.9 -9.9 -9.999 -99.9 -99.99 -9.99
2019/11/16 08:54 PST    2.21   2.57    5  240    7  53.2  58.6 1022.1 -9.9 -9.999 -99.9 -99.99 -9.99
2019/11/16 09:00 PST    2.18   2.54    4  247    6  53.4  58.6 1022.0 -9.9 -9.999 -99.9 -99.99 -9.99
2019/11/16 09:06 PST    2.15   2.52 -999 -999 -999 -99.9 -99.9 -999.9 -9.9 -9.999 -99.9 -99.99 -9.99
2019/11/16 09:12 PST    2.12   2.50    4  250    7  53.8  58.6 1022.0 -9.9 -9.999 -99.9 -99.99 -9.99
2019/11/16 09:18 PST    2.10   2.47    5  263    6  53.8  58.6 1022.1 -9.9 -9.999 -99.9 -99.99 -9.99
2019/11/16 09:24 PST    2.08   2.46    4  263    6  54.1  58.6 1022.2 -9.9 -9.999 -99.9 -99.99 -9.99
2019/11/16 09:30 PST    2.06   2.44    5  250    6  54.3  58.6 1022.1 -9.9 -9.999 -99.9 -99.99 -9.99
2019/11/16 09:36 PST    2.05   2.44    5  249    6  54.3  58.6 1022.1 -9.9 -9.999 -99.9 -99.99 -9.99
2019/11/16 09:42 PST    2.04   2.44    5  255    7  54.3  58.6 1022.0 -9.9 -9.999 -99.9 -99.99 -9.99
2019/11/16 09:48 PST    2.03   2.45    5  262    6  54.5  58.6 1022.1 -9.9 -9.999 -99.9 -99.99 -9.99
2019/11/16 09:54 PST    2.03   2.46    4  256    7  54.7  58.6 1022.1 -9.9 -9.999 -99.9 -99.99 -9.99
2019/11/16 10:00 PST    2.03   2.48    4  260    5  54.9  58.6 1022.1 -9.9 -9.999 -99.9 -99.99 -9.99
2019/11/16 10:06 PST    2.04 -99.99 -999 -999 -999 -99.9 -99.9 -999.9 -9.9 -9.999 -99.9 -99.99 -9.99
2019/11/16 10:12 PST    2.05 -99.99 -999 -999 -999 -99.9 -99.9 -999.9 -9.9 -9.999 -99.9 -99.99 -9.99
2019/11/16 10:18 PST    2.06 -99.99 -999 -999 -999 -99.9 -99.9 -999.9 -9.9 -9.999 -99.9 -99.99 -9.99
2019/11/16 10:24 PST    2.08 -99.99 -999 -999 -999 -99.9 -99.9 -999.9 -9.9 -9.999 -99.9 -99.99 -9.99
2019/11/16 10:30 PST    2.10 -99.99 -999 -999 -999 -99.9 -99.9 -999.9 -9.9 -9.999 -99.9 -99.99 -9.99
2019/11/16 10:36 PST    2.12 -99.99 -999 -999 -999 -99.9 -99.9 -999.9 -9.9 -9.999 -99.9 -99.99 -9.99
2019/11/16 10:42 PST    2.15 -99.99 -999 -999 -999 -99.9 -99.9 -999.9 -9.9 -9.999 -99.9 -99.99 -9.99
2019/11/16 10:48 PST    2.18 -99.99 -999 -999 -999 -99.9 -99.9 -999.9 -9.9 -9.999 -99.9 -99.99 -9.99
2019/11/16 10:54 PST    2.22 -99.99 -999 -999 -999 -99.9 -99.9 -999.9 -9.9 -9.999 -99.9 -99.99 -9.99
2019/11/16 11:00 PST    2.25 -99.99 -999 -999 -999 -99.9 -99.9 -999.9 -9.9 -9.999 -99.9 -99.99 -9.99
2019/11/16 11:06 PST    2.30 -99.99 -999 -999 -999 -99.9 -99.9 -999.9 -9.9 -9.999 -99.9 -99.99 -9.99
2019/11/16 11:12 PST    2.34 -99.99 -999 -999 -999 -99.9 -99.9 -999.9 -9.9 -9.999 -99.9 -99.99 -9.99
2019/11/16 11:18 PST    2.39 -99.99 -999 -999 -999 -99.9 -99.9 -999.9 -9.9 -9.999 -99.9 -99.99 -9.99
2019/11/16 11:24 PST    2.45 -99.99 -999 -999 -999 -99.9 -99.9 -999.9 -9.9 -9.999 -99.9 -99.99 -9.99
2019/11/16 11:30 PST    2.50 -99.99 -999 -999 -999 -99.9 -99.9 -999.9 -9.9 -9.999 -99.9 -99.99 -9.99
2019/11/16 11:36 PST    2.56 -99.99 -999 -999 -999 -99.9 -99.9 -999.9 -9.9 -9.999 -99.9 -99.99 -9.99
2019/11/16 11:42 PST    2.63 -99.99 -999 -999 -999 -99.9 -99.9 -999.9 -9.9 -9.999 -99.9 -99.99 -9.99
2019/11/16 11:48 PST    2.70 -99.99 -999 -999 -999 -99.9 -99.9 -999.9 -9.9 -9.999 -99.9 -99.99 -9.99
2019/11/16 11:54 PST    2.77 -99.99 -999 -999 -999 -99.9 -99.9 -999.9 -9.9 -9.999 -99.9 -99.99 -9.99
2019/11/16 12:00 PST    2.84 -99.99 -999 -999 -999 -99.9 -99.9 -999.9 -9.9 -9.999 -99.9 -99.99 -9.99
2019/11/16 12:06 PST    2.92 -99.99 -999 -999 -999 -99.9 -99.9 -999.9 -9.9 -9.999 -99.9 -99.99 -9.99
2019/11/16 12:12 PST    3.01 -99.99 -999 -999 -999 -99.9 -99.9 -999.9 -9.9 -9.999 -99.9 -99.99 -9.99
2019/11/16 12:18 PST    3.09 -99.99 -999 -999 -999 -99.9 -99.9 -999.9 -9.9 -9.999 -99.9 -99.99 -9.99
2019/11/16 12:24 PST    3.18 -99.99 -999 -999 -999 -99.9 -99.9 -999.9 -9.9 -9.999 -99.9 -99.99 -9.99
2019/11/16 12:30 PST    3.27 -99.99 -999 -999 -999 -99.9 -99.9 -999.9 -9.9 -9.999 -99.9 -99.99 -9.99
2019/11/16 12:36 PST    3.36 -99.99 -999 -999 -999 -99.9 -99.9 -999.9 -9.9 -9.999 -99.9 -99.99 -9.99
2019/11/16 12:42 PST    3.46 -99.99 -999 -999 -999 -99.9 -99.9 -999.9 -9.9 -9.999 -99.9 -99.99 -9.99
2019/11/16 12:48 PST    3.55 -99.99 -999 -999 -999 -99.9 -99.9 -999.9 -9.9 -9.999 -99.9 -99.99 -9.99
2019/11/16 12:54 PST    3.65 -99.99 -999 -999 -999 -99.9 -99.9 -999.9 -9.9 -9.999 -99.9 -99.99 -9.99
2019/11/16 13:00 PST    3.75 -99.99 -999 -999 -999 -99.9 -99.9 -999.9 -9.9 -9.999 -99.9 -99.99 -9.99
2019/11/16 13:06 PST    3.84 -99.99 -999 -999 -999 -99.9 -99.9 -999.9 -9.9 -9.999 -99.9 -99.99 -9.99
2019/11/16 13:12 PST    3.94 -99.99 -999 -999 -999 -99.9 -99.9 -999.9 -9.9 -9.999 -99.9 -99.99 -9.99
2019/11/16 13:18 PST    4.04 -99.99 -999 -999 -999 -99.9 -99.9 -999.9 -9.9 -9.999 -99.9 -99.99 -9.99
2019/11/16 13:24 PST    4.13 -99.99 -999 -999 -999 -99.9 -99.9 -999.9 -9.9 -9.999 -99.9 -99.99 -9.99
2019/11/16 13:30 PST    4.23 -99.99 -999 -999 -999 -99.9 -99.9 -999.9 -9.9 -9.999 -99.9 -99.99 -9.99
2019/11/16 13:36 PST    4.32 -99.99 -999 -999 -999 -99.9 -99.9 -999.9 -9.9 -9.999 -99.9 -99.99 -9.99
2019/11/16 13:42 PST    4.41 -99.99 -999 -999 -999 -99.9 -99.9 -999.9 -9.9 -9.999 -99.9 -99.99 -9.99
2019/11/16 13:48 PST    4.50 -99.99 -999 -999 -999 -99.9 -99.9 -999.9 -9.9 -9.999 -99.9 -99.99 -9.99
2019/11/16 13:54 PST    4.58 -99.99 -999 -999 -999 -99.9 -99.9 -999.9 -9.9 -9.999 -99.9 -99.99 -9.99
2019/11/16 14:00 PST    4.66 -99.99 -999 -999 -999 -99.9 -99.9 -999.9 -9.9 -9.999 -99.9 -99.99 -9.99
2019/11/16 14:06 PST    4.73 -99.99 -999 -999 -999 -99.9 -99.9 -999.9 -9.9 -9.999 -99.9 -99.99 -9.99
2019/11/16 14:12 PST    4.80 -99.99 -999 -999 -999 -99.9 -99.9 -999.9 -9.9 -9.999 -99.9 -99.99 -9.99
2019/11/16 14:18 PST    4.87 -99.99 -999 -999 -999 -99.9 -99.9 -999.9 -9.9 -9.999 -99.9 -99.99 -9.99
2019/11/16 14:24 PST    4.93 -99.99 -999 -999 -999 -99.9 -99.9 -999.9 -9.9 -9.999 -99.9 -99.99 -9.99
2019/11/16 14:30 PST    4.98 -99.99 -999 -999 -999 -99.9 -99.9 -999.9 -9.9 -9.999 -99.9 -99.99 -9.99
2019/11/16 14:36 PST    5.03 -99.99 -999 -999 -999 -99.9 -99.9 -999.9 -9.9 -9.999 -99.9 -99.99 -9.99
2019/11/16 14:42 PST    5.07 -99.99 -999 -999 -999 -99.9 -99.9 -999.9 -9.9 -9.999 -99.9 -99.99 -9.99
2019/11/16 14:48 PST    5.11 -99.99 -999 -999 -999 -99.9 -99.9 -999.9 -9.9 -9.999 -99.9 -99.99 -9.99
2019/11/16 14:54 PST    5.14 -99.99 -999 -999 -999 -99.9 -99.9 -999.9 -9.9 -9.999 -99.9 -99.99 -9.99
2019/11/16 15:00 PST    5.16 -99.99 -999 -999 -999 -99.9 -99.9 -999.9 -9.9 -9.999 -99.9 -99.99 -9.99
2019/11/16 15:06 PST    5.17 -99.99 -999 -999 -999 -99.9 -99.9 -999.9 -9.9 -9.999 -99.9 -99.99 -9.99
2019/11/16 15:12 PST    5.18 -99.99 -999 -999 -999 -99.9 -99.9 -999.9 -9.9 -9.999 -99.9 -99.99 -9.99
2019/11/16 15:18 PST    5.19 -99.99 -999 -999 -999 -99.9 -99.9 -999.9 -9.9 -9.999 -99.9 -99.99 -9.99
2019/11/16 15:24 PST    5.18 -99.99 -999 -999 -999 -99.9 -99.9 -999.9 -9.9 -9.999 -99.9 -99.99 -9.99
2019/11/16 15:30 PST    5.18 -99.99 -999 -999 -999 -99.9 -99.9 -999.9 -9.9 -9.999 -99.9 -99.99 -9.99
2019/11/16 15:36 PST    5.16 -99.99 -999 -999 -999 -99.9 -99.9 -999.9 -9.9 -9.999 -99.9 -99.99 -9.99
2019/11/16 15:42 PST    5.14 -99.99 -999 -999 -999 -99.9 -99.9 -999.9 -9.9 -9.999 -99.9 -99.99 -9.99
2019/11/16 15:48 PST    5.12 -99.99 -999 -999 -999 -99.9 -99.9 -999.9 -9.9 -9.999 -99.9 -99.99 -9.99
2019/11/16 15:54 PST    5.08 -99.99 -999 -999 -999 -99.9 -99.9 -999.9 -9.9 -9.999 -99.9 -99.99 -9.99
2019/11/16 16:00 PST    5.05 -99.99 -999 -999 -999 -99.9 -99.9 -999.9 -9.9 -9.999 -99.9 -99.99 -9.99
2019/11/16 16:06 PST    5.01 -99.99 -999 -999 -999 -99.9 -99.9 -999.9 -9.9 -9.999 -99.9 -99.99 -9.99
2019/11/16 16:12 PST    4.96 -99.99 -999 -999 -999 -99.9 -99.9 -999.9 -9.9 -9.999 -99.9 -99.99 -9.99
2019/11/16 16:18 PST    4.91 -99.99 -999 -999 -999 -99.9 -99.9 -999.9 -9.9 -9.999 -99.9 -99.99 -9.99
2019/11/16 16:24 PST    4.86 -99.99 -999 -999 -999 -99.9 -99.9 -999.9 -9.9 -9.999 -99.9 -99.99 -9.99
2019/11/16 16:30 PST    4.80 -99.99 -999 -999 -999 -99.9 -99.9 -999.9 -9.9 -9.999 -99.9 -99.99 -9.99
2019/11/16 16:36 PST    4.73 -99.99 -999 -999 -999 -99.9 -99.9 -999.9 -9.9 -9.999 -99.9 -99.99 -9.99
2019/11/16 16:42 PST    4.67 -99.99 -999 -999 -999 -99.9 -99.9 -999.9 -9.9 -9.999 -99.9 -99.99 -9.99
2019/11/16 16:48 PST    4.60 -99.99 -999 -999 -999 -99.9 -99.9 -999.9 -9.9 -9.999 -99.9 -99.99 -9.99
2019/11/16 16:54 PST    4.52 -99.99 -999 -999 -999 -99.9 -99.9 -999.9 -9.9 -9.999 -99.9 -99.99 -9.99
2019/11/16 17:00 PST    4.45 -99.99 -999 -999 -999 -99.9 -99.9 -999.9 -9.9 -9.999 -99.9 -99.99 -9.99
2019/11/16 17:06 PST    4.37 -99.99 -999 -999 -999 -99.9 -99.9 -999.9 -9.9 -9.999 -99.9 -99.99 -9.99
2019/11/16 17:12 PST    4.28 -99.99 -999 -999 -999 -99.9 -99.9 -999.9 -9.9 -9.999 -99.9 -99.99 -9.99
2019/11/16 17:18 PST    4.20 -99.99 -999 -999 -999 -99.9 -99.9 -999.9 -9.9 -9.999 -99.9 -99.99 -9.99
2019/11/16 17:24 PST    4.11 -99.99 -999 -999 -999 -99.9 -99.9 -999.9 -9.9 -9.999 -99.9 -99.99 -9.99
2019/11/16 17:30 PST    4.02 -99.99 -999 -999 -999 -99.9 -99.9 -999.9 -9.9 -9.999 -99.9 -99.99 -9.99
2019/11/16 17:36 PST    3.93 -99.99 -999 -999 -999 -99.9 -99.9 -999.9 -9.9 -9.999 -99.9 -99.99 -9.99
2019/11/16 17:42 PST    3.83 -99.99 -999 -999 -999 -99.9 -99.9 -999.9 -9.9 -9.999 -99.9 -99.99 -9.99
2019/11/16 17:48 PST    3.74 -99.99 -999 -999 -999 -99.9 -99.9 -999.9 -9.9 -9.999 -99.9 -99.99 -9.99
2019/11/16 17:54 PST    3.64   3.82 -999 -999 -999 -99.9 -99.9 -999.9 -9.9 -9.999 -99.9 -99.99 -9.99
2019/11/16 18:00 PST    3.54   3.70    2  230    3  64.2  59.7 1019.0 -9.9 -9.999 -99.9 -99.99 -9.99
2019/11/16 18:06 PST    3.43   3.59    2  265    3  63.9  59.7 1019.1 -9.9 -9.999 -99.9 -99.99 -9.99
2019/11/16 18:12 PST    3.33   3.49    2  248    3  63.3  59.7 1019.1 -9.9 -9.999 -99.9 -99.99 -9.99
2019/11/16 18:18 PST    3.22   3.38    2  242    3  63.3  59.7 1019.1 -9.9 -9.999 -99.9 -99.99 -9.99
2019/11/16 18:24 PST    3.12   3.28    2  231    4  63.0  59.7 1019.1 -9.9 -9.999 -99.9 -99.99 -9.99
2019/11/16 18:30 PST    3.01   3.18    3  223    3  62.6  59.7 1019.1 -9.9 -9.999 -99.9 -99.99 -9.99
2019/11/16 18:36 PST    2.90   3.08    3  228    3  62.2  59.7 1019.1 -9.9 -9.999 -99.9 -99.99 -9.99
2019/11/16 18:42 PST    2.79   2.98    3  225    4  62.2  59.7 1019.1 -9.9 -9.999 -99.9 -99.99 -9.99
2019/11/16 18:48 PST    2.69   2.88    3  201    4  61.9  59.7 1019.1 -9.9 -9.999 -99.9 -99.99 -9.99
2019/11/16 18:54 PST    2.58   2.77    3  220    4  62.2  59.7 1019.1 -9.9 -9.999 -99.9 -99.99 -9.99
2019/11/16 19:00 PST    2.47   2.66    3  225    5  61.9  59.7 1019.1 -9.9 -9.999 -99.9 -99.99 -9.99
2019/11/16 19:06 PST    2.36   2.57    3  216    4  61.5  59.7 1019.1 -9.9 -9.999 -99.9 -99.99 -9.99
2019/11/16 19:12 PST    2.25   2.48    4  222    5  61.7  59.7 1019.1 -9.9 -9.999 -99.9 -99.99 -9.99
2019/11/16 19:18 PST    2.14   2.39    4  219    6  62.1  59.7 1019.2 -9.9 -9.999 -99.9 -99.99 -9.99
2019/11/16 19:24 PST    2.04   2.30    3  216    6  62.1  59.7 1019.2 -9.9 -9.999 -99.9 -99.99 -9.99
2019/11/16 19:30 PST    1.93   2.21    4  216    5  62.4  59.5 1019.2 -9.9 -9.999 -99.9 -99.99 -9.99
2019/11/16 19:36 PST    1.83   2.12    3  206    6  61.7  59.5 1019.2 -9.9 -9.999 -99.9 -99.99 -9.99
2019/11/16 19:42 PST    1.72   2.05    3  214    4  61.3  59.5 1019.1 -9.9 -9.999 -99.9 -99.99 -9.99
2019/11/16 19:48 PST    1.62   1.98    2  214    4  61.0  59.5 1019.2 -9.9 -9.999 -99.9 -99.99 -9.99
2019/11/16 19:54 PST    1.52   1.90    2  211    4  59.2  59.5 1019.3 -9.9 -9.999 -99.9 -99.99 -9.99
2019/11/16 20:00 PST    1.43   1.83    2  213    4  59.7  59.5 1019.3 -9.9 -9.999 -99.9 -99.99 -9.99
2019/11/16 20:06 PST    1.33   1.75    6  222    6  60.4  59.5 1019.3 -9.9 -9.999 -99.9 -99.99 -9.99
2019/11/16 20:12 PST    1.24   1.69    5  218    6  59.7  59.5 1019.2 -9.9 -9.999 -99.9 -99.99 -9.99
2019/11/16 20:18 PST    1.15   1.63    3  208    5  58.8  59.5 1019.2 -9.9 -9.999 -99.9 -99.99 -9.99
2019/11/16 20:24 PST    1.06   1.56    4  211    5  57.9  59.5 1019.1 -9.9 -9.999 -99.9 -99.99 -9.99
2019/11/16 20:30 PST    0.98   1.50    4  213    5  58.3  59.5 1019.1 -9.9 -9.999 -99.9 -99.99 -9.99
2019/11/16 20:36 PST    0.90   1.44    7  197    9  60.1  59.5 1019.1 -9.9 -9.999 -99.9 -99.99 -9.99
2019/11/16 20:42 PST    0.82   1.38    6  195    9  60.1  59.5 1019.2 -9.9 -9.999 -99.9 -99.99 -9.99
2019/11/16 20:48 PST    0.75   1.32    5  199    8  59.7  59.5 1019.2 -9.9 -9.999 -99.9 -99.99 -9.99
2019/11/16 20:54 PST    0.68   1.26    4  207    8  58.1  59.5 1019.3 -9.9 -9.999 -99.9 -99.99 -9.99
2019/11/16 21:00 PST    0.61   1.21    4  204    7  59.0  59.4 1019.4 -9.9 -9.999 -99.9 -99.99 -9.99
2019/11/16 21:06 PST    0.54   1.15    4  203    6  59.0  59.4 1019.4 -9.9 -9.999 -99.9 -99.99 -9.99
2019/11/16 21:12 PST    0.48   1.10    5  220    6  56.3  59.4 1019.4 -9.9 -9.999 -99.9 -99.99 -9.99
2019/11/16 21:18 PST    0.43   1.05    5  226    6  55.6  59.4 1019.4 -9.9 -9.999 -99.9 -99.99 -9.99
2019/11/16 21:24 PST    0.37   0.99    5  223    6  56.1  59.4 1019.4 -9.9 -9.999 -99.9 -99.99 -9.99
2019/11/16 21:30 PST    0.32   0.94    4  218    6  55.8  59.4 1019.4 -9.9 -9.999 -99.9 -99.99 -9.99
2019/11/16 21:36 PST    0.28   0.88    4  223    5  55.6  59.4 1019.5 -9.9 -9.999 -99.9 -99.99 -9.99
2019/11/16 21:42 PST    0.23   0.82    5  228    6  55.0  59.4 1019.5 -9.9 -9.999 -99.9 -99.99 -9.99
2019/11/16 21:48 PST    0.19   0.78    5  225    6  55.4  59.4 1019.5 -9.9 -9.999 -99.9 -99.99 -9.99
2019/11/16 21:54 PST    0.15   0.72    4  215    7  56.7  59.4 1019.5 -9.9 -9.999 -99.9 -99.99 -9.99
2019/11/16 22:00 PST    0.12   0.65    6  199    9  58.3  59.2 1019.6 -9.9 -9.999 -99.9 -99.99 -9.99
2019/11/16 22:06 PST    0.09   0.60    5  201    9  58.3  59.2 1019.6 -9.9 -9.999 -99.9 -99.99 -9.99
2019/11/16 22:12 PST    0.06   0.54    5  201    9  58.1  59.2 1019.6 -9.9 -9.999 -99.9 -99.99 -9.99
2019/11/16 22:18 PST    0.04   0.49    4  201    8  57.4  59.2 1019.6 -9.9 -9.999 -99.9 -99.99 -9.99
2019/11/16 22:24 PST    0.01   0.45    4  203    7  57.7  59.2 1019.6 -9.9 -9.999 -99.9 -99.99 -9.99
2019/11/16 22:30 PST   -0.01   0.39    7  196    9  57.7  59.0 1019.7 -9.9 -9.999 -99.9 -99.99 -9.99
2019/11/16 22:36 PST   -0.02   0.34    7  191    9  57.6  59.0 1019.6 -9.9 -9.999 -99.9 -99.99 -9.99
2019/11/16 22:42 PST   -0.04   0.29    7  187    8  56.8  59.0 1019.6 -9.9 -9.999 -99.9 -99.99 -9.99
2019/11/16 22:48 PST   -0.05   0.24    7  190    8  57.2  59.0 1019.6 -9.9 -9.999 -99.9 -99.99 -9.99
2019/11/16 22:54 PST   -0.06   0.20    6  193    8  57.2  59.0 1019.5 -9.9 -9.999 -99.9 -99.99 -9.99
2019/11/16 23:00 PST   -0.07   0.16    6  194    8  57.6  59.0 1019.5 -9.9 -9.999 -99.9 -99.99 -9.99
2019/11/16 23:06 PST   -0.07   0.14    7  192    8  57.2  59.0 1019.4 -9.9 -9.999 -99.9 -99.99 -9.99
2019/11/16 23:12 PST   -0.07   0.11    5  196    8  56.8  58.8 1019.5 -9.9 -9.999 -99.9 -99.99 -9.99
2019/11/16 23:18 PST   -0.07   0.09    5  187    7  55.8  58.8 1019.5 -9.9 -9.999 -99.9 -99.99 -9.99
2019/11/16 23:24 PST   -0.07   0.05    6  183    6  56.5  58.8 1019.5 -9.9 -9.999 -99.9 -99.99 -9.99
2019/11/16 23:30 PST   -0.06   0.04    6  189    7  57.4  58.8 1019.6 -9.9 -9.999 -99.9 -99.99 -9.99
2019/11/16 23:36 PST   -0.05   0.00    7  189    7  57.4  58.6 1019.5 -9.9 -9.999 -99.9 -99.99 -9.99
2019/11/16 23:42 PST   -0.04   0.00    7  190    8  57.2  58.6 1019.5 -9.9 -9.999 -99.9 -99.99 -9.99
2019/11/16 23:48 PST   -0.02   0.00    6  196    7  57.6  58.6 1019.5 -9.9 -9.999 -99.9 -99.99 -9.99
2019/11/16 23:54 PST   -0.00  -0.01    4  199    7  57.4  58.6 1019.5 -9.9 -9.999 -99.9 -99.99 -9.99
2019/11/17 00:00 PST    0.02  -0.01    6  192    7  56.7  58.6 1019.5 -9.9 -9.999 -99.9 -99.99 -9.99
2019/11/17 00:06 PST    0.05   0.02    6  195    7  56.8  58.6 1019.4 -9.9 -9.999 -99.9 -99.99 -9.99
2019/11/17 00:12 PST    0.08   0.03    3  209    7  56.3  58.6 1019.4 -9.9 -9.999 -99.9 -99.99 -9.99
2019/11/17 00:18 PST    0.11   0.07    3  202    7  56.3  58.6 1019.5 -9.9 -9.999 -99.9 -99.99 -9.99
2019/11/17 00:24 PST    0.15   0.10    3  203    5  55.8  58.6 1019.5 -9.9 -9.999 -99.9 -99.99 -9.99
2019/11/17 00:30 PST    0.19   0.16    3  206    6  56.1  58.6 1019.4 -9.9 -9.999 -99.9 -99.99 -9.99
2019/11/17 00:36 PST    0.23   0.20    5  195    7  56.8  58.6 1019.5 -9.9 -9.999 -99.9 -99.99 -9.99
2019/11/17 00:42 PST    0.28   0.27    5  196    6  57.2  58.6 1019.5 -9.9 -9.999 -99.9 -99.99 -9.99
2019/11/17 00:48 PST    0.33   0.34    3  198    7  56.8  58.6 1019.5 -9.9 -9.999 -99.9 -99.99 -9.99
2019/11/17 00:54 PST    0.39   0.41    6  186    6  57.6  58.6 1019.5 -9.9 -9.999 -99.9 -99.99 -9.99
2019/11/17 01:00 PST    0.45   0.50    5  191    6  57.6  58.6 1019.6 -9.9 -9.999 -99.9 -99.99 -9.99
2019/11/17 01:06 PST    0.52   0.59    5  194    6  57.4  58.6 1019.6 -9.9 -9.999 -99.9 -99.99 -9.99
2019/11/17 01:12 PST    0.58   0.68    4  191    5  55.6  58.6 1019.6 -9.9 -9.999 -99.9 -99.99 -9.99
2019/11/17 01:18 PST    0.65   0.78    3  200    5  55.4  58.6 1019.7 -9.9 -9.999 -99.9 -99.99 -9.99
2019/11/17 01:24 PST    0.73   0.87    3  218    4  55.9  58.6 1019.7 -9.9 -9.999 -99.9 -99.99 -9.99
2019/11/17 01:30 PST    0.81   0.97    5  224    5  57.0  58.6 1019.7 -9.9 -9.999 -99.9 -99.99 -9.99
2019/11/17 01:36 PST    0.89   1.07    4  196    6  55.2  58.6 1019.7 -9.9 -9.999 -99.9 -99.99 -9.99
2019/11/17 01:42 PST    0.97   1.17    3  207    6  55.0  58.6 1019.7 -9.9 -9.999 -99.9 -99.99 -9.99
2019/11/17 01:48 PST    1.05   1.28    6  191    6  53.4  58.6 1019.7 -9.9 -9.999 -99.9 -99.99 -9.99
2019/11/17 01:54 PST    1.14   1.39    3  198    7  53.8  58.6 1019.7 -9.9 -9.999 -99.9 -99.99 -9.99
2019/11/17 02:00 PST    1.23   1.50    4  196    6  53.8  58.6 1019.8 -9.9 -9.999 -99.9 -99.99 -9.99
2019/11/17 02:06 PST    1.32   1.62    5  192    7  53.4  58.6 1019.7 -9.9 -9.999 -99.9 -99.99 -9.99
2019/11/17 02:12 PST    1.41   1.73    7  188    7  54.0  58.6 1019.8 -9.9 -9.999 -99.9 -99.99 -9.99
2019/11/17 02:18 PST    1.50   1.85    6  192    7  55.0  58.6 1019.8 -9.9 -9.999 -99.9 -99.99 -9.99
2019/11/17 02:24 PST    1.59   1.96    6  195    7  54.9  58.5 1019.7 -9.9 -9.999 -99.9 -99.99 -9.99
2019/11/17 02:30 PST    1.68   2.06    4  215    7  52.0  58.5 1019.8 -9.9 -9.999 -99.9 -99.99 -9.99
2019/11/17 02:36 PST    1.77   2.16    3  202    4  52.7  58.5 1019.7 -9.9 -9.999 -99.9 -99.99 -9.99
2019/11/17 02:42 PST    1.85   2.26    5  181    7  52.9  58.5 1019.7 -9.9 -9.999 -99.9 -99.99 -9.99
2019/11/17 02:48 PST    1.94   2.37    4  190    6  53.6  58.6 1019.6 -9.9 -9.999 -99.9 -99.99 -9.99
2019/11/17 02:54 PST    2.03   2.46    2  219    6  52.9  58.6 1019.7 -9.9 -9.999 -99.9 -99.99 -9.99
2019/11/17 03:00 PST    2.11   2.55    5  183    6  54.3  58.6 1019.7 -9.9 -9.999 -99.9 -99.99 -9.99
2019/11/17 03:06 PST    2.20   2.64    4  174    6  53.8  58.5 1019.7 -9.9 -9.999 -99.9 -99.99 -9.99
2019/11/17 03:12 PST    2.28   2.72    2  191    4  53.4  58.5 1019.8 -9.9 -9.999 -99.9 -99.99 -9.99
2019/11/17 03:18 PST    2.36   2.81    3  186    4  53.6  58.5 1019.8 -9.9 -9.999 -99.9 -99.99 -9.99
2019/11/17 03:24 PST    2.44   2.89    4  185    4  53.8  58.5 1019.8 -9.9 -9.999 -99.9 -99.99 -9.99
2019/11/17 03:30 PST    2.51   2.96    3  192    4  52.7  58.5 1019.8 -9.9 -9.999 -99.9 -99.99 -9.99
2019/11/17 03:36 PST    2.58   3.04    3  170    4  53.2  58.5 1019.8 -9.9 -9.999 -99.9 -99.99 -9.99
2019/11/17 03:42 PST    2.66   3.11    3  130    4  54.7  58.6 1019.7 -9.9 -9.999 -99.9 -99.99 -9.99
2019/11/17 03:48 PST    2.72   3.18    5  107    6  54.9  58.6 1019.8 -9.9 -9.999 -99.9 -99.99 -9.99
2019/11/17 03:54 PST    2.79   3.24    3   91    4  54.3  58.6 1019.8 -9.9 -9.999 -99.9 -99.99 -9.99
2019/11/17 04:00 PST    2.85   3.31    4   94    4  54.0  58.6 1019.8 -9.9 -9.999 -99.9 -99.99 -9.99
2019/11/17 04:06 PST    2.92   3.37    5   99    6  52.9  58.6 1019.8 -9.9 -9.999 -99.9 -99.99 -9.99
2019/11/17 04:12 PST    2.98   3.43    5   92    6  52.7  58.5 1019.8 -9.9 -9.999 -99.9 -99.99 -9.99
2019/11/17 04:18 PST    3.03   3.49    4   77    5  52.2  58.5 1019.8 -9.9 -9.999 -99.9 -99.99 -9.99
2019/11/17 04:24 PST    3.09   3.53    4   77    5  53.2  58.5 1019.8 -9.9 -9.999 -99.9 -99.99 -9.99
2019/11/17 04:30 PST    3.14   3.58    4   77    4  53.4  58.5 1019.9 -9.9 -9.999 -99.9 -99.99 -9.99
2019/11/17 04:36 PST    3.19   3.62    2   72    4  53.4  58.5 1019.9 -9.9 -9.999 -99.9 -99.99 -9.99
2019/11/17 04:42 PST    3.24   3.66    2   65    3  53.6  58.5 1020.0 -9.9 -9.999 -99.9 -99.99 -9.99
2019/11/17 04:48 PST    3.29   3.71    2   83    3  53.6  58.5 1019.9 -9.9 -9.999 -99.9 -99.99 -9.99
2019/11/17 04:54 PST    3.33   3.74    3   84    3  53.2  58.5 1020.0 -9.9 -9.999 -99.9 -99.99 -9.99
2019/11/17 05:00 PST    3.37   3.77    3   55    4  53.1  58.5 1020.0 -9.9 -9.999 -99.9 -99.99 -9.99
2019/11/17 05:06 PST    3.41   3.80    5   53    6  52.2  58.5 1020.1 -9.9 -9.999 -99.9 -99.99 -9.99
2019/11/17 05:12 PST    3.45   3.83    5   35    6  52.7  58.5 1020.1 -9.9 -9.999 -99.9 -99.99 -9.99
2019/11/17 05:18 PST    3.48   3.85    7   26    8  52.7  58.5 1020.2 -9.9 -9.999 -99.9 -99.99 -9.99
2019/11/17 05:24 PST    3.51   3.87    6   36    8  52.7  58.5 1020.4 -9.9 -9.999 -99.9 -99.99 -9.99
2019/11/17 05:30 PST    3.54   3.89    8   45    9  52.7  58.5 1020.4 -9.9 -9.999 -99.9 -99.99 -9.99
2019/11/17 05:36 PST    3.57   3.91    8   49    9  52.9  58.6 1020.3 -9.9 -9.999 -99.9 -99.99 -9.99
2019/11/17 05:42 PST    3.59   3.92    6   62    8  52.7  58.6 1020.5 -9.9 -9.999 -99.9 -99.99 -9.99
2019/11/17 05:48 PST    3.61   3.94    3   87    7  51.8  58.6 1020.4 -9.9 -9.999 -99.9 -99.99 -9.99
2019/11/17 05:54 PST    3.63   3.95    5   89    6  51.6  58.6 1020.4 -9.9 -9.999 -99.9 -99.99 -9.99
2019/11/17 06:00 PST    3.64   3.96    7  111    8  51.6  58.6 1020.3 -9.9 -9.999 -99.9 -99.99 -9.99
2019/11/17 06:06 PST    3.65   3.97    7   99    8  52.3  58.6 1020.3 -9.9 -9.999 -99.9 -99.99 -9.99
2019/11/17 06:12 PST    3.65   3.97    4  101    6  51.3  58.6 1020.3 -9.9 -9.999 -99.9 -99.99 -9.99
2019/11/17 06:18 PST    3.66   3.97    4   93    5  50.9  58.6 1020.4 -9.9 -9.999 -99.9 -99.99 -9.99
2019/11/17 06:24 PST    3.65   3.97    2   59    4  50.9  58.6 1020.4 -9.9 -9.999 -99.9 -99.99 -9.99
2019/11/17 06:30 PST    3.65   3.97    2   57    5  51.6  58.6 1020.4 -9.9 -9.999 -99.9 -99.99 -9.99
2019/11/17 06:36 PST    3.64   3.98    6   41    7  52.0  58.6 1020.4 -9.9 -9.999 -99.9 -99.99 -9.99
2019/11/17 06:42 PST    3.63   3.96    5   33    6  52.0  58.6 1020.4 -9.9 -9.999 -99.9 -99.99 -9.99
2019/11/17 06:48 PST    3.61   3.95    4   20    6  51.4  58.6 1020.4 -9.9 -9.999 -99.9 -99.99 -9.99
2019/11/17 06:54 PST    3.59   3.94    4   16    5  51.4  58.6 1020.5 -9.9 -9.999 -99.9 -99.99 -9.99
2019/11/17 07:00 PST    3.57   3.92    6    7    7  50.9  58.6 1020.6 -9.9 -9.999 -99.9 -99.99 -9.99
2019/11/17 07:06 PST    3.54   3.90    5   10    6  51.1  58.6 1020.7 -9.9 -9.999 -99.9 -99.99 -9.99
2019/11/17 07:12 PST    3.51   3.87    5   30    6  50.9  58.6 1020.7 -9.9 -9.999 -99.9 -99.99 -9.99
2019/11/17 07:18 PST    3.48   3.84    6   44    6  50.9  58.6 1020.7 -9.9 -9.999 -99.9 -99.99 -9.99
2019/11/17 07:24 PST    3.44   3.80    5   34    6  50.9  58.6 1020.8 -9.9 -9.999 -99.9 -99.99 -9.99
2019/11/17 07:30 PST    3.40   3.77    5   28    6  50.7  58.6 1020.9 -9.9 -9.999 -99.9 -99.99 -9.99
2019/11/17 07:36 PST    3.36   3.74    4   26    5  50.9  58.6 1020.9 -9.9 -9.999 -99.9 -99.99 -9.99
2019/11/17 07:42 PST    3.31   3.70    4   31    5  51.4  58.6 1020.9 -9.9 -9.999 -99.9 -99.99 -9.99
2019/11/17 07:48 PST    3.26   3.65    4   45    5  51.8  58.6 1020.8 -9.9 -9.999 -99.9 -99.99 -9.99
2019/11/17 07:54 PST    3.21   3.59    4   47    5  52.2  58.6 1020.9 -9.9 -9.999 -99.9 -99.99 -9.99
2019/11/17 08:00 PST    3.16   3.55    4   48    5  52.2  58.6 1020.9 -9.9 -9.999 -99.9 -99.99 -9.99
2019/11/17 08:06 PST    3.11   3.50    4   69    5  52.3  58.6 1021.0 -9.9 -9.999 -99.9 -99.99 -9.99
2019/11/17 08:12 PST    3.05   3.45    4   59    4  52.5  58.6 1021.1 -9.9 -9.999 -99.9 -99.99 -9.99
2019/11/17 08:18 PST    3.00   3.40    4   48    5  52.7  58.6 1021.2 -9.9 -9.999 -99.9 -99.99 -9.99
2019/11/17 08:24 PST    2.94   3.35    5   49    5  52.7  58.6 1021.2 -9.9 -9.999 -99.9 -99.99 -9.99
2019/11/17 08:30 PST    2.89   3.29    4   58    5  52.9  58.6 1021.2 -9.9 -9.999 -99.9 -99.99 -9.99
2019/11/17 08:36 PST    2.83   3.24    3   56    5  53.1  58.6 1021.3 -9.9 -9.999 -99.9 -99.99 -9.99
2019/11/17 08:42 PST    2.77 -99.99 -999 -999 -999 -99.9 -99.9 -999.9 -9.9 -9.999 -99.9 -99.99 -9.99
2019/11/17 08:48 PST    2.72 -99.99 -999 -999 -999 -99.9 -99.9 -999.9 -9.9 -9.999 -99.9 -99.99 -9.99
2019/11/17 08:54 PST    2.66 -99.99 -999 -999 -999 -99.9 -99.9 -999.9 -9.9 -9.999 -99.9 -99.99 -9.99
2019/11/17 09:00 PST    2.61 -99.99 -999 -999 -999 -99.9 -99.9 -999.9 -9.9 -9.999 -99.9 -99.99 -9.99
2019/11/17 09:06 PST    2.56 -99.99 -999 -999 -999 -99.9 -99.9 -999.9 -9.9 -9.999 -99.9 -99.99 -9.99
2019/11/17 09:12 PST    2.51 -99.99 -999 -999 -999 -99.9 -99.9 -999.9 -9.9 -9.999 -99.9 -99.99 -9.99
2019/11/17 09:18 PST    2.46 -99.99 -999 -999 -999 -99.9 -99.9 -999.9 -9.9 -9.999 -99.9 -99.99 -9.99
2019/11/17 09:24 PST    2.41 -99.99 -999 -999 -999 -99.9 -99.9 -999.9 -9.9 -9.999 -99.9 -99.99 -9.99
2019/11/17 09:30 PST    2.37 -99.99 -999 -999 -999 -99.9 -99.9 -999.9 -9.9 -9.999 -99.9 -99.99 -9.99
2019/11/17 09:36 PST    2.32 -99.99 -999 -999 -999 -99.9 -99.9 -999.9 -9.9 -9.999 -99.9 -99.99 -9.99
2019/11/17 09:42 PST    2.28 -99.99 -999 -999 -999 -99.9 -99.9 -999.9 -9.9 -9.999 -99.9 -99.99 -9.99
2019/11/17 09:48 PST    2.25 -99.99 -999 -999 -999 -99.9 -99.9 -999.9 -9.9 -9.999 -99.9 -99.99 -9.99
2019/11/17 09:54 PST    2.21 -99.99 -999 -999 -999 -99.9 -99.9 -999.9 -9.9 -9.999 -99.9 -99.99 -9.99
2019/11/17 10:00 PST    2.18 -99.99 -999 -999 -999 -99.9 -99.9 -999.9 -9.9 -9.999 -99.9 -99.99 -9.99
2019/11/17 10:06 PST    2.15 -99.99 -999 -999 -999 -99.9 -99.9 -999.9 -9.9 -9.999 -99.9 -99.99 -9.99
2019/11/17 10:12 PST    2.13 -99.99 -999 -999 -999 -99.9 -99.9 -999.9 -9.9 -9.999 -99.9 -99.99 -9.99
2019/11/17 10:18 PST    2.11 -99.99 -999 -999 -999 -99.9 -99.9 -999.9 -9.9 -9.999 -99.9 -99.99 -9.99
2019/11/17 10:24 PST    2.09 -99.99 -999 -999 -999 -99.9 -99.9 -999.9 -9.9 -9.999 -99.9 -99.99 -9.99
2019/11/17 10:30 PST    2.07 -99.99 -999 -999 -999 -99.9 -99.9 -999.9 -9.9 -9.999 -99.9 -99.99 -9.99
2019/11/17 10:36 PST    2.06 -99.99 -999 -999 -999 -99.9 -99.9 -999.9 -9.9 -9.999 -99.9 -99.99 -9.99
2019/11/17 10:42 PST    2.05 -99.99 -999 -999 -999 -99.9 -99.9 -999.9 -9.9 -9.999 -99.9 -99.99 -9.99
2019/11/17 10:48 PST    2.05 -99.99 -999 -999 -999 -99.9 -99.9 -999.9 -9.9 -9.999 -99.9 -99.99 -9.99
2019/11/17 10:54 PST    2.05 -99.99 -999 -999 -999 -99.9 -99.9 -999.9 -9.9 -9.999 -99.9 -99.99 -9.99
2019/11/17 11:00 PST    2.05 -99.99 -999 -999 -999 -99.9 -99.9 -999.9 -9.9 -9.999 -99.9 -99.99 -9.99
2019/11/17 11:06 PST    2.06 -99.99 -999 -999 -999 -99.9 -99.9 -999.9 -9.9 -9.999 -99.9 -99.99 -9.99
2019/11/17 11:12 PST    2.07 -99.99 -999 -999 -999 -99.9 -99.9 -999.9 -9.9 -9.999 -99.9 -99.99 -9.99
2019/11/17 11:18 PST    2.08 -99.99 -999 -999 -999 -99.9 -99.9 -999.9 -9.9 -9.999 -99.9 -99.99 -9.99
2019/11/17 11:24 PST    2.10 -99.99 -999 -999 -999 -99.9 -99.9 -999.9 -9.9 -9.999 -99.9 -99.99 -9.99
2019/11/17 11:30 PST    2.12 -99.99 -999 -999 -999 -99.9 -99.9 -999.9 -9.9 -9.999 -99.9 -99.99 -9.99
2019/11/17 11:36 PST    2.14 -99.99 -999 -999 -999 -99.9 -99.9 -999.9 -9.9 -9.999 -99.9 -99.99 -9.99
2019/11/17 11:42 PST    2.17 -99.99 -999 -999 -999 -99.9 -99.9 -999.9 -9.9 -9.999 -99.9 -99.99 -9.99
2019/11/17 11:48 PST    2.20 -99.99 -999 -999 -999 -99.9 -99.9 -999.9 -9.9 -9.999 -99.9 -99.99 -9.99
2019/11/17 11:54 PST    2.23 -99.99 -999 -999 -999 -99.9 -99.9 -999.9 -9.9 -9.999 -99.9 -99.99 -9.99
2019/11/17 12:00 PST    2.27 -99.99 -999 -999 -999 -99.9 -99.9 -999.9 -9.9 -9.999 -99.9 -99.99 -9.99
2019/11/17 12:06 PST    2.31 -99.99 -999 -999 -999 -99.9 -99.9 -999.9 -9.9 -9.999 -99.9 -99.99 -9.99
2019/11/17 12:12 PST    2.35 -99.99 -999 -999 -999 -99.9 -99.9 -999.9 -9.9 -9.999 -99.9 -99.99 -9.99
2019/11/17 12:18 PST    2.40 -99.99 -999 -999 -999 -99.9 -99.9 -999.9 -9.9 -9.999 -99.9 -99.99 -9.99
2019/11/17 12:24 PST    2.45 -99.99 -999 -999 -999 -99.9 -99.9 -999.9 -9.9 -9.999 -99.9 -99.99 -9.99
2019/11/17 12:30 PST    2.51 -99.99 -999 -999 -999 -99.9 -99.9 -999.9 -9.9 -9.999 -99.9 -99.99 -9.99
2019/11/17 12:36 PST    2.57 -99.99 -999 -999 -999 -99.9 -99.9 -999.9 -9.9 -9.999 -99.9 -99.99 -9.99
2019/11/17 12:42 PST    2.63 -99.99 -999 -999 -999 -99.9 -99.9 -999.9 -9.9 -9.999 -99.9 -99.99 -9.99
2019/11/17 12:48 PST    2.70 -99.99 -999 -999 -999 -99.9 -99.9 -999.9 -9.9 -9.999 -99.9 -99.99 -9.99
2019/11/17 12:54 PST    2.76 -99.99 -999 -999 -999 -99.9 -99.9 -999.9 -9.9 -9.999 -99.9 -99.99 -9.99
2019/11/17 13:00 PST    2.84 -99.99 -999 -999 -999 -99.9 -99.9 -999.9 -9.9 -9.999 -99.9 -99.99 -9.99
2019/11/17 13:06 PST    2.91 -99.99 -999 -999 -999 -99.9 -99.9 -999.9 -9.9 -9.999 -99.9 -99.99 -9.99
2019/11/17 13:12 PST    2.99 -99.99 -999 -999 -999 -99.9 -99.9 -999.9 -9.9 -9.999 -99.9 -99.99 -9.99
2019/11/17 13:18 PST    3.07 -99.99 -999 -999 -999 -99.9 -99.9 -999.9 -9.9 -9.999 -99.9 -99.99 -9.99
2019/11/17 13:24 PST    3.16 -99.99 -999 -999 -999 -99.9 -99.9 -999.9 -9.9 -9.999 -99.9 -99.99 -9.99
2019/11/17 13:30 PST    3.24 -99.99 -999 -999 -999 -99.9 -99.9 -999.9 -9.9 -9.999 -99.9 -99.99 -9.99
2019/11/17 13:36 PST    3.33 -99.99 -999 -999 -999 -99.9 -99.9 -999.9 -9.9 -9.999 -99.9 -99.99 -9.99
2019/11/17 13:42 PST    3.42 -99.99 -999 -999 -999 -99.9 -99.9 -999.9 -9.9 -9.999 -99.9 -99.99 -9.99
2019/11/17 13:48 PST    3.51 -99.99 -999 -999 -999 -99.9 -99.9 -999.9 -9.9 -9.999 -99.9 -99.99 -9.99
2019/11/17 13:54 PST    3.60 -99.99 -999 -999 -999 -99.9 -99.9 -999.9 -9.9 -9.999 -99.9 -99.99 -9.99
2019/11/17 14:00 PST    3.69 -99.99 -999 -999 -999 -99.9 -99.9 -999.9 -9.9 -9.999 -99.9 -99.99 -9.99
2019/11/17 14:06 PST    3.78 -99.99 -999 -999 -999 -99.9 -99.9 -999.9 -9.9 -9.999 -99.9 -99.99 -9.99
2019/11/17 14:12 PST    3.87 -99.99 -999 -999 -999 -99.9 -99.9 -999.9 -9.9 -9.999 -99.9 -99.99 -9.99
2019/11/17 14:18 PST    3.96 -99.99 -999 -999 -999 -99.9 -99.9 -999.9 -9.9 -9.999 -99.9 -99.99 -9.99
2019/11/17 14:24 PST    4.05 -99.99 -999 -999 -999 -99.9 -99.9 -999.9 -9.9 -9.999 -99.9 -99.99 -9.99
2019/11/17 14:30 PST    4.13 -99.99 -999 -999 -999 -99.9 -99.9 -999.9 -9.9 -9.999 -99.9 -99.99 -9.99
2019/11/17 14:36 PST    4.21 -99.99 -999 -999 -999 -99.9 -99.9 -999.9 -9.9 -9.999 -99.9 -99.99 -9.99
2019/11/17 14:42 PST    4.29 -99.99 -999 -999 -999 -99.9 -99.9 -999.9 -9.9 -9.999 -99.9 -99.99 -9.99
2019/11/17 14:48 PST    4.37 -99.99 -999 -999 -999 -99.9 -99.9 -999.9 -9.9 -9.999 -99.9 -99.99 -9.99
2019/11/17 14:54 PST    4.44 -99.99 -999 -999 -999 -99.9 -99.9 -999.9 -9.9 -9.999 -99.9 -99.99 -9.99
2019/11/17 15:00 PST    4.51 -99.99 -999 -999 -999 -99.9 -99.9 -999.9 -9.9 -9.999 -99.9 -99.99 -9.99
2019/11/17 15:06 PST    4.57 -99.99 -999 -999 -999 -99.9 -99.9 -999.9 -9.9 -9.999 -99.9 -99.99 -9.99
2019/11/17 15:12 PST    4.63 -99.99 -999 -999 -999 -99.9 -99.9 -999.9 -9.9 -9.999 -99.9 -99.99 -9.99
2019/11/17 15:18 PST    4.69 -99.99 -999 -999 -999 -99.9 -99.9 -999.9 -9.9 -9.999 -99.9 -99.99 -9.99
2019/11/17 15:24 PST    4.74 -99.99 -999 -999 -999 -99.9 -99.9 -999.9 -9.9 -9.999 -99.9 -99.99 -9.99
2019/11/17 15:30 PST    4.78 -99.99 -999 -999 -999 -99.9 -99.9 -999.9 -9.9 -9.999 -99.9 -99.99 -9.99
2019/11/17 15:36 PST    4.82 -99.99 -999 -999 -999 -99.9 -99.9 -999.9 -9.9 -9.999 -99.9 -99.99 -9.99
2019/11/17 15:42 PST    4.85 -99.99 -999 -999 -999 -99.9 -99.9 -999.9 -9.9 -9.999 -99.9 -99.99 -9.99
2019/11/17 15:48 PST    4.87 -99.99 -999 -999 -999 -99.9 -99.9 -999.9 -9.9 -9.999 -99.9 -99.99 -9.99
2019/11/17 15:54 PST    4.89 -99.99 -999 -999 -999 -99.9 -99.9 -999.9 -9.9 -9.999 -99.9 -99.99 -9.99
2019/11/17 16:00 PST    4.91 -99.99 -999 -999 -999 -99.9 -99.9 -999.9 -9.9 -9.999 -99.9 -99.99 -9.99
2019/11/17 16:06 PST    4.92 -99.99 -999 -999 -999 -99.9 -99.9 -999.9 -9.9 -9.999 -99.9 -99.99 -9.99
2019/11/17 16:12 PST    4.92 -99.99 -999 -999 -999 -99.9 -99.9 -999.9 -9.9 -9.999 -99.9 -99.99 -9.99
2019/11/17 16:18 PST    4.92 -99.99 -999 -999 -999 -99.9 -99.9 -999.9 -9.9 -9.999 -99.9 -99.99 -9.99
2019/11/17 16:24 PST    4.91 -99.99 -999 -999 -999 -99.9 -99.9 -999.9 -9.9 -9.999 -99.9 -99.99 -9.99
2019/11/17 16:30 PST    4.89 -99.99 -999 -999 -999 -99.9 -99.9 -999.9 -9.9 -9.999 -99.9 -99.99 -9.99
2019/11/17 16:36 PST    4.88 -99.99 -999 -999 -999 -99.9 -99.9 -999.9 -9.9 -9.999 -99.9 -99.99 -9.99
2019/11/17 16:42 PST    4.85 -99.99 -999 -999 -999 -99.9 -99.9 -999.9 -9.9 -9.999 -99.9 -99.99 -9.99
2019/11/17 16:48 PST    4.82 -99.99 -999 -999 -999 -99.9 -99.9 -999.9 -9.9 -9.999 -99.9 -99.99 -9.99
2019/11/17 16:54 PST    4.79 -99.99 -999 -999 -999 -99.9 -99.9 -999.9 -9.9 -9.999 -99.9 -99.99 -9.99
2019/11/17 17:00 PST    4.75 -99.99 -999 -999 -999 -99.9 -99.9 -999.9 -9.9 -9.999 -99.9 -99.99 -9.99
2019/11/17 17:06 PST    4.71 -99.99 -999 -999 -999 -99.9 -99.9 -999.9 -9.9 -9.999 -99.9 -99.99 -9.99
2019/11/17 17:12 PST    4.66 -99.99 -999 -999 -999 -99.9 -99.9 -999.9 -9.9 -9.999 -99.9 -99.99 -9.99
2019/11/17 17:18 PST    4.61 -99.99 -999 -999 -999 -99.9 -99.9 -999.9 -9.9 -9.999 -99.9 -99.99 -9.99
2019/11/17 17:24 PST    4.56 -99.99 -999 -999 -999 -99.9 -99.9 -999.9 -9.9 -9.999 -99.9 -99.99 -9.99
2019/11/17 17:30 PST    4.50 -99.99 -999 -999 -999 -99.9 -99.9 -999.9 -9.9 -9.999 -99.9 -99.99 -9.99
2019/11/17 17:36 PST    4.44 -99.99 -999 -999 -999 -99.9 -99.9 -999.9 -9.9 -9.999 -99.9 -99.99 -9.99
2019/11/17 17:42 PST    4.38 -99.99 -999 -999 -999 -99.9 -99.9 -999.9 -9.9 -9.999 -99.9 -99.99 -9.99
2019/11/17 17:48 PST    4.31 -99.99 -999 -999 -999 -99.9 -99.9 -999.9 -9.9 -9.999 -99.9 -99.99 -9.99
2019/11/17 17:54 PST    4.24 -99.99 -999 -999 -999 -99.9 -99.9 -999.9 -9.9 -9.999 -99.9 -99.99 -9.99
2019/11/17 18:00 PST    4.17 -99.99 -999 -999 -999 -99.9 -99.9 -999.9 -9.9 -9.999 -99.9 -99.99 -9.99
2019/11/17 18:06 PST    4.09 -99.99 -999 -999 -999 -99.9 -99.9 -999.9 -9.9 -9.999 -99.9 -99.99 -9.99
2019/11/17 18:12 PST    4.02 -99.99 -999 -999 -999 -99.9 -99.9 -999.9 -9.9 -9.999 -99.9 -99.99 -9.99
2019/11/17 18:18 PST    3.94 -99.99 -999 -999 -999 -99.9 -99.9 -999.9 -9.9 -9.999 -99.9 -99.99 -9.99
2019/11/17 18:24 PST    3.85 -99.99 -999 -999 -999 -99.9 -99.9 -999.9 -9.9 -9.999 -99.9 -99.99 -9.99
2019/11/17 18:30 PST    3.77 -99.99 -999 -999 -999 -99.9 -99.9 -999.9 -9.9 -9.999 -99.9 -99.99 -9.99
2019/11/17 18:36 PST    3.68 -99.99 -999 -999 -999 -99.9 -99.9 -999.9 -9.9 -9.999 -99.9 -99.99 -9.99
2019/11/17 18:42 PST    3.59 -99.99 -999 -999 -999 -99.9 -99.9 -999.9 -9.9 -9.999 -99.9 -99.99 -9.99
2019/11/17 18:48 PST    3.50 -99.99 -999 -999 -999 -99.9 -99.9 -999.9 -9.9 -9.999 -99.9 -99.99 -9.99
2019/11/17 18:54 PST    3.40 -99.99 -999 -999 -999 -99.9 -99.9 -999.9 -9.9 -9.999 -99.9 -99.99 -9.99
2019/11/17 19:00 PST    3.31 -99.99 -999 -999 -999 -99.9 -99.9 -999.9 -9.9 -9.999 -99.9 -99.99 -9.99
2019/11/17 19:06 PST    3.21 -99.99 -999 -999 -999 -99.9 -99.9 -999.9 -9.9 -9.999 -99.9 -99.99 -9.99
2019/11/17 19:12 PST    3.11 -99.99 -999 -999 -999 -99.9 -99.9 -999.9 -9.9 -9.999 -99.9 -99.99 -9.99
2019/11/17 19:18 PST    3.02 -99.99 -999 -999 -999 -99.9 -99.9 -999.9 -9.9 -9.999 -99.9 -99.99 -9.99
2019/11/17 19:24 PST    2.91 -99.99 -999 -999 -999 -99.9 -99.9 -999.9 -9.9 -9.999 -99.9 -99.99 -9.99
2019/11/17 19:30 PST    2.81 -99.99 -999 -999 -999 -99.9 -99.9 -999.9 -9.9 -9.999 -99.9 -99.99 -9.99
2019/11/17 19:36 PST    2.71 -99.99 -999 -999 -999 -99.9 -99.9 -999.9 -9.9 -9.999 -99.9 -99.99 -9.99
2019/11/17 19:42 PST    2.61 -99.99 -999 -999 -999 -99.9 -99.9 -999.9 -9.9 -9.999 -99.9 -99.99 -9.99
2019/11/17 19:48 PST    2.50 -99.99 -999 -999 -999 -99.9 -99.9 -999.9 -9.9 -9.999 -99.9 -99.99 -9.99
2019/11/17 19:54 PST    2.40 -99.99 -999 -999 -999 -99.9 -99.9 -999.9 -9.9 -9.999 -99.9 -99.99 -9.99
2019/11/17 20:00 PST    2.30 -99.99 -999 -999 -999 -99.9 -99.9 -999.9 -9.9 -9.999 -99.9 -99.99 -9.99
2019/11/17 20:06 PST    2.19 -99.99 -999 -999 -999 -99.9 -99.9 -999.9 -9.9 -9.999 -99.9 -99.99 -9.99
2019/11/17 20:12 PST    2.09 -99.99 -999 -999 -999 -99.9 -99.9 -999.9 -9.9 -9.999 -99.9 -99.99 -9.99
2019/11/17 20:18 PST    1.99 -99.99 -999 -999 -999 -99.9 -99.9 -999.9 -9.9 -9.999 -99.9 -99.99 -9.99
2019/11/17 20:24 PST    1.89 -99.99 -999 -999 -999 -99.9 -99.9 -999.9 -9.9 -9.999 -99.9 -99.99 -9.99
2019/11/17 20:30 PST    1.79 -99.99 -999 -999 -999 -99.9 -99.9 -999.9 -9.9 -9.999 -99.9 -99.99 -9.99
2019/11/17 20:36 PST    1.69 -99.99 -999 -999 -999 -99.9 -99.9 -999.9 -9.9 -9.999 -99.9 -99.99 -9.99
2019/11/17 20:42 PST    1.59 -99.99 -999 -999 -999 -99.9 -99.9 -999.9 -9.9 -9.999 -99.9 -99.99 -9.99
2019/11/17 20:48 PST    1.50 -99.99 -999 -999 -999 -99.9 -99.9 -999.9 -9.9 -9.999 -99.9 -99.99 -9.99
2019/11/17 20:54 PST    1.41 -99.99 -999 -999 -999 -99.9 -99.9 -999.9 -9.9 -9.999 -99.9 -99.99 -9.99
2019/11/17 21:00 PST    1.31 -99.99 -999 -999 -999 -99.9 -99.9 -999.9 -9.9 -9.999 -99.9 -99.99 -9.99
2019/11/17 21:06 PST    1.23 -99.99 -999 -999 -999 -99.9 -99.9 -999.9 -9.9 -9.999 -99.9 -99.99 -9.99
2019/11/17 21:12 PST    1.14 -99.99 -999 -999 -999 -99.9 -99.9 -999.9 -9.9 -9.999 -99.9 -99.99 -9.99
2019/11/17 21:18 PST    1.06 -99.99 -999 -999 -999 -99.9 -99.9 -999.9 -9.9 -9.999 -99.9 -99.99 -9.99
2019/11/17 21:24 PST    0.97 -99.99 -999 -999 -999 -99.9 -99.9 -999.9 -9.9 -9.999 -99.9 -99.99 -9.99
2019/11/17 21:30 PST    0.90 -99.99 -999 -999 -999 -99.9 -99.9 -999.9 -9.9 -9.999 -99.9 -99.99 -9.99
2019/11/17 21:36 PST    0.82 -99.99 -999 -999 -999 -99.9 -99.9 -999.9 -9.9 -9.999 -99.9 -99.99 -9.99
2019/11/17 21:42 PST    0.75 -99.99 -999 -999 -999 -99.9 -99.9 -999.9 -9.9 -9.999 -99.9 -99.99 -9.99
2019/11/17 21:48 PST    0.68 -99.99 -999 -999 -999 -99.9 -99.9 -999.9 -9.9 -9.999 -99.9 -99.99 -9.99
2019/11/17 21:54 PST    0.62 -99.99 -999 -999 -999 -99.9 -99.9 -999.9 -9.9 -9.999 -99.9 -99.99 -9.99
2019/11/17 22:00 PST    0.55 -99.99 -999 -999 -999 -99.9 -99.9 -999.9 -9.9 -9.999 -99.9 -99.99 -9.99
2019/11/17 22:06 PST    0.50 -99.99 -999 -999 -999 -99.9 -99.9 -999.9 -9.9 -9.999 -99.9 -99.99 -9.99
2019/11/17 22:12 PST    0.44 -99.99 -999 -999 -999 -99.9 -99.9 -999.9 -9.9 -9.999 -99.9 -99.99 -9.99
2019/11/17 22:18 PST    0.39 -99.99 -999 -999 -999 -99.9 -99.9 -999.9 -9.9 -9.999 -99.9 -99.99 -9.99
2019/11/17 22:24 PST    0.34 -99.99 -999 -999 -999 -99.9 -99.9 -999.9 -9.9 -9.999 -99.9 -99.99 -9.99
2019/11/17 22:30 PST    0.29 -99.99 -999 -999 -999 -99.9 -99.9 -999.9 -9.9 -9.999 -99.9 -99.99 -9.99
2019/11/17 22:36 PST    0.25 -99.99 -999 -999 -999 -99.9 -99.9 -999.9 -9.9 -9.999 -99.9 -99.99 -9.99
2019/11/17 22:42 PST    0.21 -99.99 -999 -999 -999 -99.9 -99.9 -999.9 -9.9 -9.999 -99.9 -99.99 -9.99
2019/11/17 22:48 PST    0.17 -99.99 -999 -999 -999 -99.9 -99.9 -999.9 -9.9 -9.999 -99.9 -99.99 -9.99
2019/11/17 22:54 PST    0.14 -99.99 -999 -999 -999 -99.9 -99.9 -999.9 -9.9 -9.999 -99.9 -99.99 -9.99
2019/11/17 23:00 PST    0.11 -99.99 -999 -999 -999 -99.9 -99.9 -999.9 -9.9 -9.999 -99.9 -99.99 -9.99
2019/11/17 23:06 PST    0.08 -99.99 -999 -999 -999 -99.9 -99.9 -999.9 -9.9 -9.999 -99.9 -99.99 -9.99
2019/11/17 23:12 PST    0.06 -99.99 -999 -999 -999 -99.9 -99.9 -999.9 -9.9 -9.999 -99.9 -99.99 -9.99
2019/11/17 23:18 PST    0.04 -99.99 -999 -999 -999 -99.9 -99.9 -999.9 -9.9 -9.999 -99.9 -99.99 -9.99
2019/11/17 23:24 PST    0.02 -99.99 -999 -999 -999 -99.9 -99.9 -999.9 -9.9 -9.999 -99.9 -99.99 -9.99